<?xml version="1.0" encoding="UTF-8" standalone="no" ?>
<gpx xmlns="http://www.topografix.com/GPX/1/1" xmlns:xsi="http://www.w3.org/2001/XMLSchema-instance" xsi:schemaLocation="http://www.topografix.com/GPX/1/1 http://www.topografix.com/GPX/1/1/gpx.xsd" version="1.1" creator="VisuGPX - https://www.visugpx.com">
  <metadata>
    <name>ski de fond:St Francois de Sales - refuge creux de lachat 26/02/2015</name>
    <desc><![CDATA[ski de fond:St Francois de Sales - refuge creux de lachat 26/02/2015]]></desc>
  </metadata>
  <trk>
    <name><![CDATA[2015-02-26 10:58]]></name>
    <desc><![CDATA[<h1>OruxMaps</h1><br /><hr align="center" width="480" style="height: 2px; width: 517px"/><h2>Nom: 2015-02-26 10:58</h2><br /><p>Temps de départ: 02/26/2015 10:57</p><p>Temps d'arrivée: 02/26/2015 17:35</p><p>Distance: 19km (06:38)</p><p>Temps déplacement: 03:47</p><p>Vitesse moyenne: 2,9km/h</p><p>Vitesse moyenne: 5km/h</p><p>Vitess Max.: 25,3km/h</p><p>Altitude minimale: 1241m</p><p>Altitude maximale: 1495m</p><p>Vitesse d'élévation: 366,7m/h</p><p>Vitesse de descente: -271,2m/h</p><p>Gain Altitude: 1014m</p><p>Perte Altitude: -973m</p><p>Temps d'élévation: 02:46</p><p>Temps de descente: 03:35</p><hr align="center" width="480" style="height: 2px; width: 517px"/>]]></desc>
    <trkseg>
      <trkpt lat="45.68368" lon="6.03722">
        <ele>1281</ele>
        <time>2015-02-26T09:57:07Z</time>
      </trkpt>
      <trkpt lat="45.68366" lon="6.0375">
        <ele>1279</ele>
        <time>2015-02-26T09:57:57Z</time>
      </trkpt>
      <trkpt lat="45.68369" lon="6.03776">
        <ele>1274</ele>
        <time>2015-02-26T09:58:06Z</time>
      </trkpt>
      <trkpt lat="45.6838" lon="6.03798">
        <ele>1274</ele>
        <time>2015-02-26T09:58:13Z</time>
      </trkpt>
      <trkpt lat="45.68392" lon="6.03818">
        <ele>1275</ele>
        <time>2015-02-26T09:58:18Z</time>
      </trkpt>
      <trkpt lat="45.68403" lon="6.03839">
        <ele>1272</ele>
        <time>2015-02-26T09:58:23Z</time>
      </trkpt>
      <trkpt lat="45.68409" lon="6.03866">
        <ele>1268</ele>
        <time>2015-02-26T09:58:27Z</time>
      </trkpt>
      <trkpt lat="45.68417" lon="6.03893">
        <ele>1274</ele>
        <time>2015-02-26T09:58:29Z</time>
      </trkpt>
      <trkpt lat="45.68423" lon="6.03918">
        <ele>1265</ele>
        <time>2015-02-26T09:58:33Z</time>
      </trkpt>
      <trkpt lat="45.68436" lon="6.03941">
        <ele>1266</ele>
        <time>2015-02-26T09:58:36Z</time>
      </trkpt>
      <trkpt lat="45.68442" lon="6.0397">
        <ele>1264</ele>
        <time>2015-02-26T09:58:42Z</time>
      </trkpt>
      <trkpt lat="45.68457" lon="6.03995">
        <ele>1264</ele>
        <time>2015-02-26T09:58:45Z</time>
      </trkpt>
      <trkpt lat="45.68469" lon="6.04016">
        <ele>1257</ele>
        <time>2015-02-26T09:58:48Z</time>
      </trkpt>
      <trkpt lat="45.68485" lon="6.04036">
        <ele>1257</ele>
        <time>2015-02-26T09:58:52Z</time>
      </trkpt>
      <trkpt lat="45.685" lon="6.04065">
        <ele>1255</ele>
        <time>2015-02-26T09:58:55Z</time>
      </trkpt>
      <trkpt lat="45.68509" lon="6.04094">
        <ele>1255</ele>
        <time>2015-02-26T09:58:59Z</time>
      </trkpt>
      <trkpt lat="45.68518" lon="6.04117">
        <ele>1256</ele>
        <time>2015-02-26T09:59:03Z</time>
      </trkpt>
      <trkpt lat="45.68525" lon="6.04142">
        <ele>1254</ele>
        <time>2015-02-26T09:59:07Z</time>
      </trkpt>
      <trkpt lat="45.68538" lon="6.04161">
        <ele>1254</ele>
        <time>2015-02-26T09:59:10Z</time>
      </trkpt>
      <trkpt lat="45.68555" lon="6.04174">
        <ele>1248</ele>
        <time>2015-02-26T09:59:13Z</time>
      </trkpt>
      <trkpt lat="45.68567" lon="6.04193">
        <ele>1247</ele>
        <time>2015-02-26T09:59:16Z</time>
      </trkpt>
      <trkpt lat="45.68581" lon="6.0421">
        <ele>1245</ele>
        <time>2015-02-26T09:59:20Z</time>
      </trkpt>
      <trkpt lat="45.6859" lon="6.04234">
        <ele>1248</ele>
        <time>2015-02-26T09:59:24Z</time>
      </trkpt>
      <trkpt lat="45.68602" lon="6.04256">
        <ele>1241</ele>
        <time>2015-02-26T09:59:28Z</time>
      </trkpt>
      <trkpt lat="45.68614" lon="6.04285">
        <ele>1241</ele>
        <time>2015-02-26T09:59:32Z</time>
      </trkpt>
      <trkpt lat="45.6863" lon="6.04302">
        <ele>1240</ele>
        <time>2015-02-26T09:59:35Z</time>
      </trkpt>
      <trkpt lat="45.68644" lon="6.04319">
        <ele>1240</ele>
        <time>2015-02-26T09:59:39Z</time>
      </trkpt>
      <trkpt lat="45.68665" lon="6.04328">
        <ele>1239</ele>
        <time>2015-02-26T09:59:43Z</time>
      </trkpt>
      <trkpt lat="45.68681" lon="6.04343">
        <ele>1236</ele>
        <time>2015-02-26T09:59:47Z</time>
      </trkpt>
      <trkpt lat="45.68695" lon="6.04361">
        <ele>1235</ele>
        <time>2015-02-26T09:59:51Z</time>
      </trkpt>
      <trkpt lat="45.6871" lon="6.04378">
        <ele>1234</ele>
        <time>2015-02-26T09:59:55Z</time>
      </trkpt>
      <trkpt lat="45.68722" lon="6.04399">
        <ele>1232</ele>
        <time>2015-02-26T10:00:00Z</time>
      </trkpt>
      <trkpt lat="45.68735" lon="6.04422">
        <ele>1225</ele>
        <time>2015-02-26T10:00:05Z</time>
      </trkpt>
      <trkpt lat="45.68752" lon="6.04438">
        <ele>1227</ele>
        <time>2015-02-26T10:00:10Z</time>
      </trkpt>
      <trkpt lat="45.68771" lon="6.04456">
        <ele>1225</ele>
        <time>2015-02-26T10:00:15Z</time>
      </trkpt>
      <trkpt lat="45.68792" lon="6.04465">
        <ele>1225</ele>
        <time>2015-02-26T10:00:19Z</time>
      </trkpt>
      <trkpt lat="45.68815" lon="6.04474">
        <ele>1225</ele>
        <time>2015-02-26T10:00:21Z</time>
      </trkpt>
      <trkpt lat="45.68836" lon="6.04485">
        <ele>1227</ele>
        <time>2015-02-26T10:00:25Z</time>
      </trkpt>
      <trkpt lat="45.68853" lon="6.04496">
        <ele>1228</ele>
        <time>2015-02-26T10:00:28Z</time>
      </trkpt>
      <trkpt lat="45.68872" lon="6.04506">
        <ele>1220</ele>
        <time>2015-02-26T10:00:32Z</time>
      </trkpt>
      <trkpt lat="45.68894" lon="6.04516">
        <ele>1222</ele>
        <time>2015-02-26T10:00:36Z</time>
      </trkpt>
      <trkpt lat="45.68909" lon="6.04536">
        <ele>1220</ele>
        <time>2015-02-26T10:00:43Z</time>
      </trkpt>
      <trkpt lat="45.68917" lon="6.04559">
        <ele>1223</ele>
        <time>2015-02-26T10:00:49Z</time>
      </trkpt>
      <trkpt lat="45.68928" lon="6.04587">
        <ele>1213</ele>
        <time>2015-02-26T10:00:54Z</time>
      </trkpt>
      <trkpt lat="45.68944" lon="6.04608">
        <ele>1214</ele>
        <time>2015-02-26T10:00:57Z</time>
      </trkpt>
      <trkpt lat="45.68952" lon="6.04633">
        <ele>1214</ele>
        <time>2015-02-26T10:01:04Z</time>
      </trkpt>
      <trkpt lat="45.68965" lon="6.04651">
        <ele>1213</ele>
        <time>2015-02-26T10:01:29Z</time>
      </trkpt>
      <trkpt lat="45.68982" lon="6.04662">
        <ele>1213</ele>
        <time>2015-02-26T10:02:11Z</time>
      </trkpt>
      <trkpt lat="45.69" lon="6.04665">
        <ele>1211</ele>
        <time>2015-02-26T10:02:32Z</time>
      </trkpt>
      <trkpt lat="45.69019" lon="6.04666">
        <ele>1222</ele>
        <time>2015-02-26T10:02:46Z</time>
      </trkpt>
      <trkpt lat="45.69038" lon="6.04671">
        <ele>1214</ele>
        <time>2015-02-26T10:03:00Z</time>
      </trkpt>
      <trkpt lat="45.69056" lon="6.04681">
        <ele>1216</ele>
        <time>2015-02-26T10:03:24Z</time>
      </trkpt>
      <trkpt lat="45.69071" lon="6.04696">
        <ele>1216</ele>
        <time>2015-02-26T10:03:36Z</time>
      </trkpt>
      <trkpt lat="45.69088" lon="6.04708">
        <ele>1224</ele>
        <time>2015-02-26T10:03:49Z</time>
      </trkpt>
      <trkpt lat="45.69105" lon="6.04715">
        <ele>1224</ele>
        <time>2015-02-26T10:04:00Z</time>
      </trkpt>
      <trkpt lat="45.69123" lon="6.04721">
        <ele>1225</ele>
        <time>2015-02-26T10:04:11Z</time>
      </trkpt>
      <trkpt lat="45.6914" lon="6.04731">
        <ele>1226</ele>
        <time>2015-02-26T10:04:29Z</time>
      </trkpt>
      <trkpt lat="45.69158" lon="6.04733">
        <ele>1227</ele>
        <time>2015-02-26T10:04:47Z</time>
      </trkpt>
      <trkpt lat="45.69175" lon="6.04725">
        <ele>1235</ele>
        <time>2015-02-26T10:05:03Z</time>
      </trkpt>
      <trkpt lat="45.69193" lon="6.0472">
        <ele>1237</ele>
        <time>2015-02-26T10:05:23Z</time>
      </trkpt>
      <trkpt lat="45.69212" lon="6.04725">
        <ele>1238</ele>
        <time>2015-02-26T10:06:51Z</time>
      </trkpt>
      <trkpt lat="45.69228" lon="6.04737">
        <ele>1237</ele>
        <time>2015-02-26T10:07:04Z</time>
      </trkpt>
      <trkpt lat="45.69246" lon="6.04741">
        <ele>1236</ele>
        <time>2015-02-26T10:07:50Z</time>
      </trkpt>
      <trkpt lat="45.69265" lon="6.04732">
        <ele>1241</ele>
        <time>2015-02-26T10:08:02Z</time>
      </trkpt>
      <trkpt lat="45.69283" lon="6.04727">
        <ele>1242</ele>
        <time>2015-02-26T10:08:13Z</time>
      </trkpt>
      <trkpt lat="45.69297" lon="6.04711">
        <ele>1244</ele>
        <time>2015-02-26T10:08:32Z</time>
      </trkpt>
      <trkpt lat="45.69314" lon="6.04697">
        <ele>1245</ele>
        <time>2015-02-26T10:08:43Z</time>
      </trkpt>
      <trkpt lat="45.69328" lon="6.0468">
        <ele>1248</ele>
        <time>2015-02-26T10:08:56Z</time>
      </trkpt>
      <trkpt lat="45.69344" lon="6.04667">
        <ele>1250</ele>
        <time>2015-02-26T10:09:19Z</time>
      </trkpt>
      <trkpt lat="45.69361" lon="6.04677">
        <ele>1249</ele>
        <time>2015-02-26T10:09:36Z</time>
      </trkpt>
      <trkpt lat="45.69379" lon="6.04676">
        <ele>1249</ele>
        <time>2015-02-26T10:09:55Z</time>
      </trkpt>
      <trkpt lat="45.69393" lon="6.04659">
        <ele>1258</ele>
        <time>2015-02-26T10:10:13Z</time>
      </trkpt>
      <trkpt lat="45.69408" lon="6.04644">
        <ele>1259</ele>
        <time>2015-02-26T10:10:27Z</time>
      </trkpt>
      <trkpt lat="45.69427" lon="6.04647">
        <ele>1261</ele>
        <time>2015-02-26T10:10:42Z</time>
      </trkpt>
      <trkpt lat="45.69444" lon="6.04661">
        <ele>1262</ele>
        <time>2015-02-26T10:10:57Z</time>
      </trkpt>
      <trkpt lat="45.69458" lon="6.04679">
        <ele>1257</ele>
        <time>2015-02-26T10:11:14Z</time>
      </trkpt>
      <trkpt lat="45.69472" lon="6.047">
        <ele>1257</ele>
        <time>2015-02-26T10:11:23Z</time>
      </trkpt>
      <trkpt lat="45.69486" lon="6.04717">
        <ele>1256</ele>
        <time>2015-02-26T10:11:33Z</time>
      </trkpt>
      <trkpt lat="45.69492" lon="6.04741">
        <ele>1255</ele>
        <time>2015-02-26T10:11:46Z</time>
      </trkpt>
      <trkpt lat="45.69511" lon="6.04744">
        <ele>1258</ele>
        <time>2015-02-26T10:12:01Z</time>
      </trkpt>
      <trkpt lat="45.69529" lon="6.0474">
        <ele>1261</ele>
        <time>2015-02-26T10:12:11Z</time>
      </trkpt>
      <trkpt lat="45.69547" lon="6.04738">
        <ele>1262</ele>
        <time>2015-02-26T10:12:23Z</time>
      </trkpt>
      <trkpt lat="45.69564" lon="6.04729">
        <ele>1262</ele>
        <time>2015-02-26T10:12:35Z</time>
      </trkpt>
      <trkpt lat="45.69583" lon="6.04724">
        <ele>1263</ele>
        <time>2015-02-26T10:12:47Z</time>
      </trkpt>
      <trkpt lat="45.69601" lon="6.04728">
        <ele>1264</ele>
        <time>2015-02-26T10:13:01Z</time>
      </trkpt>
      <trkpt lat="45.69619" lon="6.04721">
        <ele>1265</ele>
        <time>2015-02-26T10:13:17Z</time>
      </trkpt>
      <trkpt lat="45.69635" lon="6.04709">
        <ele>1266</ele>
        <time>2015-02-26T10:13:31Z</time>
      </trkpt>
      <trkpt lat="45.69651" lon="6.04698">
        <ele>1267</ele>
        <time>2015-02-26T10:13:44Z</time>
      </trkpt>
      <trkpt lat="45.69669" lon="6.04688">
        <ele>1269</ele>
        <time>2015-02-26T10:13:56Z</time>
      </trkpt>
      <trkpt lat="45.69687" lon="6.0468">
        <ele>1269</ele>
        <time>2015-02-26T10:14:07Z</time>
      </trkpt>
      <trkpt lat="45.69704" lon="6.04672">
        <ele>1269</ele>
        <time>2015-02-26T10:14:18Z</time>
      </trkpt>
      <trkpt lat="45.69704" lon="6.04645">
        <ele>1281</ele>
        <time>2015-02-26T10:14:38Z</time>
      </trkpt>
      <trkpt lat="45.69686" lon="6.04642">
        <ele>1281</ele>
        <time>2015-02-26T10:14:56Z</time>
      </trkpt>
      <trkpt lat="45.69669" lon="6.04647">
        <ele>1279</ele>
        <time>2015-02-26T10:15:13Z</time>
      </trkpt>
      <trkpt lat="45.6965" lon="6.0465">
        <ele>1278</ele>
        <time>2015-02-26T10:15:33Z</time>
      </trkpt>
      <trkpt lat="45.69632" lon="6.04643">
        <ele>1279</ele>
        <time>2015-02-26T10:15:55Z</time>
      </trkpt>
      <trkpt lat="45.69616" lon="6.04631">
        <ele>1279</ele>
        <time>2015-02-26T10:16:08Z</time>
      </trkpt>
      <trkpt lat="45.69599" lon="6.04618">
        <ele>1280</ele>
        <time>2015-02-26T10:16:30Z</time>
      </trkpt>
      <trkpt lat="45.69582" lon="6.04606">
        <ele>1278</ele>
        <time>2015-02-26T10:16:50Z</time>
      </trkpt>
      <trkpt lat="45.69577" lon="6.04581">
        <ele>1283</ele>
        <time>2015-02-26T10:17:16Z</time>
      </trkpt>
      <trkpt lat="45.6957" lon="6.04557">
        <ele>1283</ele>
        <time>2015-02-26T10:17:30Z</time>
      </trkpt>
      <trkpt lat="45.6956" lon="6.04535">
        <ele>1284</ele>
        <time>2015-02-26T10:17:49Z</time>
      </trkpt>
      <trkpt lat="45.69558" lon="6.04509">
        <ele>1285</ele>
        <time>2015-02-26T10:18:10Z</time>
      </trkpt>
      <trkpt lat="45.69562" lon="6.04483">
        <ele>1290</ele>
        <time>2015-02-26T10:18:25Z</time>
      </trkpt>
      <trkpt lat="45.69564" lon="6.04457">
        <ele>1291</ele>
        <time>2015-02-26T10:18:36Z</time>
      </trkpt>
      <trkpt lat="45.69574" lon="6.04435">
        <ele>1293</ele>
        <time>2015-02-26T10:18:48Z</time>
      </trkpt>
      <trkpt lat="45.69582" lon="6.04411">
        <ele>1297</ele>
        <time>2015-02-26T10:18:57Z</time>
      </trkpt>
      <trkpt lat="45.69593" lon="6.04391">
        <ele>1301</ele>
        <time>2015-02-26T10:19:07Z</time>
      </trkpt>
      <trkpt lat="45.69607" lon="6.04373">
        <ele>1302</ele>
        <time>2015-02-26T10:19:19Z</time>
      </trkpt>
      <trkpt lat="45.69621" lon="6.04357">
        <ele>1302</ele>
        <time>2015-02-26T10:19:29Z</time>
      </trkpt>
      <trkpt lat="45.69636" lon="6.0434">
        <ele>1303</ele>
        <time>2015-02-26T10:19:37Z</time>
      </trkpt>
      <trkpt lat="45.69651" lon="6.04327">
        <ele>1305</ele>
        <time>2015-02-26T10:19:47Z</time>
      </trkpt>
      <trkpt lat="45.69667" lon="6.0431">
        <ele>1306</ele>
        <time>2015-02-26T10:19:57Z</time>
      </trkpt>
      <trkpt lat="45.69687" lon="6.04304">
        <ele>1307</ele>
        <time>2015-02-26T10:20:04Z</time>
      </trkpt>
      <trkpt lat="45.69703" lon="6.04288">
        <ele>1307</ele>
        <time>2015-02-26T10:20:10Z</time>
      </trkpt>
      <trkpt lat="45.69716" lon="6.0427">
        <ele>1307</ele>
        <time>2015-02-26T10:20:17Z</time>
      </trkpt>
      <trkpt lat="45.6972" lon="6.04244">
        <ele>1306</ele>
        <time>2015-02-26T10:20:40Z</time>
      </trkpt>
      <trkpt lat="45.69734" lon="6.04229">
        <ele>1306</ele>
        <time>2015-02-26T10:29:41Z</time>
      </trkpt>
      <trkpt lat="45.69752" lon="6.04235">
        <ele>1308</ele>
        <time>2015-02-26T10:30:24Z</time>
      </trkpt>
      <trkpt lat="45.69766" lon="6.04253">
        <ele>1308</ele>
        <time>2015-02-26T10:30:32Z</time>
      </trkpt>
      <trkpt lat="45.69782" lon="6.04271">
        <ele>1308</ele>
        <time>2015-02-26T10:30:40Z</time>
      </trkpt>
      <trkpt lat="45.698" lon="6.04278">
        <ele>1308</ele>
        <time>2015-02-26T10:30:50Z</time>
      </trkpt>
      <trkpt lat="45.69818" lon="6.04288">
        <ele>1308</ele>
        <time>2015-02-26T10:31:01Z</time>
      </trkpt>
      <trkpt lat="45.69833" lon="6.04303">
        <ele>1308</ele>
        <time>2015-02-26T10:31:20Z</time>
      </trkpt>
      <trkpt lat="45.69848" lon="6.0432">
        <ele>1307</ele>
        <time>2015-02-26T10:31:39Z</time>
      </trkpt>
      <trkpt lat="45.69862" lon="6.04338">
        <ele>1306</ele>
        <time>2015-02-26T10:32:04Z</time>
      </trkpt>
      <trkpt lat="45.69871" lon="6.04362">
        <ele>1306</ele>
        <time>2015-02-26T10:32:16Z</time>
      </trkpt>
      <trkpt lat="45.69886" lon="6.04342">
        <ele>1306</ele>
        <time>2015-02-26T10:34:17Z</time>
      </trkpt>
      <trkpt lat="45.69896" lon="6.04319">
        <ele>1307</ele>
        <time>2015-02-26T10:34:47Z</time>
      </trkpt>
      <trkpt lat="45.69907" lon="6.04298">
        <ele>1308</ele>
        <time>2015-02-26T10:36:13Z</time>
      </trkpt>
      <trkpt lat="45.6992" lon="6.0428">
        <ele>1313</ele>
        <time>2015-02-26T10:36:59Z</time>
      </trkpt>
      <trkpt lat="45.69938" lon="6.04279">
        <ele>1315</ele>
        <time>2015-02-26T10:37:23Z</time>
      </trkpt>
      <trkpt lat="45.69954" lon="6.04266">
        <ele>1316</ele>
        <time>2015-02-26T10:40:13Z</time>
      </trkpt>
      <trkpt lat="45.69961" lon="6.04241">
        <ele>1319</ele>
        <time>2015-02-26T10:40:34Z</time>
      </trkpt>
      <trkpt lat="45.69966" lon="6.04216">
        <ele>1320</ele>
        <time>2015-02-26T10:41:30Z</time>
      </trkpt>
      <trkpt lat="45.69975" lon="6.04194">
        <ele>1321</ele>
        <time>2015-02-26T10:42:17Z</time>
      </trkpt>
      <trkpt lat="45.69979" lon="6.04168">
        <ele>1323</ele>
        <time>2015-02-26T10:42:33Z</time>
      </trkpt>
      <trkpt lat="45.69983" lon="6.04143">
        <ele>1326</ele>
        <time>2015-02-26T10:42:52Z</time>
      </trkpt>
      <trkpt lat="45.69988" lon="6.04117">
        <ele>1327</ele>
        <time>2015-02-26T10:43:13Z</time>
      </trkpt>
      <trkpt lat="45.69992" lon="6.04092">
        <ele>1328</ele>
        <time>2015-02-26T10:44:03Z</time>
      </trkpt>
      <trkpt lat="45.7" lon="6.04069">
        <ele>1337</ele>
        <time>2015-02-26T10:46:59Z</time>
      </trkpt>
      <trkpt lat="45.70004" lon="6.04044">
        <ele>1342</ele>
        <time>2015-02-26T10:47:25Z</time>
      </trkpt>
      <trkpt lat="45.70014" lon="6.04021">
        <ele>1342</ele>
        <time>2015-02-26T10:47:45Z</time>
      </trkpt>
      <trkpt lat="45.70021" lon="6.03997">
        <ele>1341</ele>
        <time>2015-02-26T10:48:05Z</time>
      </trkpt>
      <trkpt lat="45.70029" lon="6.03973">
        <ele>1345</ele>
        <time>2015-02-26T10:48:23Z</time>
      </trkpt>
      <trkpt lat="45.70038" lon="6.03951">
        <ele>1347</ele>
        <time>2015-02-26T10:48:43Z</time>
      </trkpt>
      <trkpt lat="45.70045" lon="6.03925">
        <ele>1348</ele>
        <time>2015-02-26T10:48:58Z</time>
      </trkpt>
      <trkpt lat="45.7005" lon="6.03899">
        <ele>1348</ele>
        <time>2015-02-26T10:49:54Z</time>
      </trkpt>
      <trkpt lat="45.70053" lon="6.03873">
        <ele>1348</ele>
        <time>2015-02-26T10:50:12Z</time>
      </trkpt>
      <trkpt lat="45.70058" lon="6.03848">
        <ele>1348</ele>
        <time>2015-02-26T10:50:33Z</time>
      </trkpt>
      <trkpt lat="45.70064" lon="6.03824">
        <ele>1349</ele>
        <time>2015-02-26T10:50:51Z</time>
      </trkpt>
      <trkpt lat="45.70071" lon="6.03798">
        <ele>1349</ele>
        <time>2015-02-26T10:51:20Z</time>
      </trkpt>
      <trkpt lat="45.70084" lon="6.0378">
        <ele>1356</ele>
        <time>2015-02-26T10:51:46Z</time>
      </trkpt>
      <trkpt lat="45.70094" lon="6.03758">
        <ele>1355</ele>
        <time>2015-02-26T10:52:06Z</time>
      </trkpt>
      <trkpt lat="45.70105" lon="6.03737">
        <ele>1354</ele>
        <time>2015-02-26T10:52:22Z</time>
      </trkpt>
      <trkpt lat="45.70119" lon="6.03718">
        <ele>1355</ele>
        <time>2015-02-26T10:52:40Z</time>
      </trkpt>
      <trkpt lat="45.70133" lon="6.037">
        <ele>1355</ele>
        <time>2015-02-26T10:52:54Z</time>
      </trkpt>
      <trkpt lat="45.70148" lon="6.03684">
        <ele>1355</ele>
        <time>2015-02-26T10:55:18Z</time>
      </trkpt>
      <trkpt lat="45.70164" lon="6.03674">
        <ele>1354</ele>
        <time>2015-02-26T10:55:29Z</time>
      </trkpt>
      <trkpt lat="45.70183" lon="6.03665">
        <ele>1356</ele>
        <time>2015-02-26T10:55:44Z</time>
      </trkpt>
      <trkpt lat="45.70199" lon="6.03654">
        <ele>1358</ele>
        <time>2015-02-26T10:55:56Z</time>
      </trkpt>
      <trkpt lat="45.70216" lon="6.03643">
        <ele>1359</ele>
        <time>2015-02-26T10:56:10Z</time>
      </trkpt>
      <trkpt lat="45.70229" lon="6.03623">
        <ele>1358</ele>
        <time>2015-02-26T10:56:21Z</time>
      </trkpt>
      <trkpt lat="45.70242" lon="6.03604">
        <ele>1357</ele>
        <time>2015-02-26T10:56:35Z</time>
      </trkpt>
      <trkpt lat="45.70253" lon="6.03583">
        <ele>1355</ele>
        <time>2015-02-26T10:56:53Z</time>
      </trkpt>
      <trkpt lat="45.70269" lon="6.03567">
        <ele>1354</ele>
        <time>2015-02-26T10:57:07Z</time>
      </trkpt>
      <trkpt lat="45.70285" lon="6.03555">
        <ele>1353</ele>
        <time>2015-02-26T10:57:22Z</time>
      </trkpt>
      <trkpt lat="45.70303" lon="6.03545">
        <ele>1353</ele>
        <time>2015-02-26T10:57:38Z</time>
      </trkpt>
      <trkpt lat="45.70321" lon="6.03542">
        <ele>1354</ele>
        <time>2015-02-26T10:58:05Z</time>
      </trkpt>
      <trkpt lat="45.70339" lon="6.03552">
        <ele>1359</ele>
        <time>2015-02-26T10:58:16Z</time>
      </trkpt>
      <trkpt lat="45.70355" lon="6.03563">
        <ele>1359</ele>
        <time>2015-02-26T10:58:31Z</time>
      </trkpt>
      <trkpt lat="45.70369" lon="6.0358">
        <ele>1360</ele>
        <time>2015-02-26T10:58:53Z</time>
      </trkpt>
      <trkpt lat="45.70382" lon="6.03598">
        <ele>1363</ele>
        <time>2015-02-26T10:59:21Z</time>
      </trkpt>
      <trkpt lat="45.70389" lon="6.03623">
        <ele>1364</ele>
        <time>2015-02-26T10:59:44Z</time>
      </trkpt>
      <trkpt lat="45.70398" lon="6.03646">
        <ele>1364</ele>
        <time>2015-02-26T10:59:54Z</time>
      </trkpt>
      <trkpt lat="45.70406" lon="6.0367">
        <ele>1364</ele>
        <time>2015-02-26T11:02:01Z</time>
      </trkpt>
      <trkpt lat="45.70416" lon="6.03692">
        <ele>1364</ele>
        <time>2015-02-26T11:02:08Z</time>
      </trkpt>
      <trkpt lat="45.70429" lon="6.03711">
        <ele>1361</ele>
        <time>2015-02-26T11:02:13Z</time>
      </trkpt>
      <trkpt lat="45.70443" lon="6.03729">
        <ele>1361</ele>
        <time>2015-02-26T11:02:18Z</time>
      </trkpt>
      <trkpt lat="45.70458" lon="6.03749">
        <ele>1361</ele>
        <time>2015-02-26T11:02:24Z</time>
      </trkpt>
      <trkpt lat="45.70473" lon="6.03764">
        <ele>1360</ele>
        <time>2015-02-26T11:02:33Z</time>
      </trkpt>
      <trkpt lat="45.70482" lon="6.03787">
        <ele>1360</ele>
        <time>2015-02-26T11:02:55Z</time>
      </trkpt>
      <trkpt lat="45.7049" lon="6.03814">
        <ele>1360</ele>
        <time>2015-02-26T11:03:07Z</time>
      </trkpt>
      <trkpt lat="45.70498" lon="6.03837">
        <ele>1359</ele>
        <time>2015-02-26T11:03:21Z</time>
      </trkpt>
      <trkpt lat="45.70511" lon="6.03856">
        <ele>1363</ele>
        <time>2015-02-26T11:03:37Z</time>
      </trkpt>
      <trkpt lat="45.70525" lon="6.03874">
        <ele>1364</ele>
        <time>2015-02-26T11:03:53Z</time>
      </trkpt>
      <trkpt lat="45.7054" lon="6.0389">
        <ele>1365</ele>
        <time>2015-02-26T11:04:07Z</time>
      </trkpt>
      <trkpt lat="45.70559" lon="6.03896">
        <ele>1366</ele>
        <time>2015-02-26T11:04:41Z</time>
      </trkpt>
      <trkpt lat="45.70573" lon="6.03879">
        <ele>1367</ele>
        <time>2015-02-26T11:05:02Z</time>
      </trkpt>
      <trkpt lat="45.7059" lon="6.03868">
        <ele>1374</ele>
        <time>2015-02-26T11:05:31Z</time>
      </trkpt>
      <trkpt lat="45.70606" lon="6.03856">
        <ele>1375</ele>
        <time>2015-02-26T11:05:53Z</time>
      </trkpt>
      <trkpt lat="45.70619" lon="6.03838">
        <ele>1375</ele>
        <time>2015-02-26T11:06:20Z</time>
      </trkpt>
      <trkpt lat="45.70633" lon="6.03821">
        <ele>1375</ele>
        <time>2015-02-26T11:06:50Z</time>
      </trkpt>
      <trkpt lat="45.70648" lon="6.03806">
        <ele>1376</ele>
        <time>2015-02-26T11:07:17Z</time>
      </trkpt>
      <trkpt lat="45.70665" lon="6.03797">
        <ele>1376</ele>
        <time>2015-02-26T11:07:39Z</time>
      </trkpt>
      <trkpt lat="45.70682" lon="6.03788">
        <ele>1378</ele>
        <time>2015-02-26T11:08:41Z</time>
      </trkpt>
      <trkpt lat="45.70701" lon="6.03793">
        <ele>1378</ele>
        <time>2015-02-26T11:08:57Z</time>
      </trkpt>
      <trkpt lat="45.70719" lon="6.03798">
        <ele>1378</ele>
        <time>2015-02-26T11:09:18Z</time>
      </trkpt>
      <trkpt lat="45.70738" lon="6.03805">
        <ele>1378</ele>
        <time>2015-02-26T11:09:26Z</time>
      </trkpt>
      <trkpt lat="45.70753" lon="6.03819">
        <ele>1377</ele>
        <time>2015-02-26T11:09:35Z</time>
      </trkpt>
      <trkpt lat="45.70769" lon="6.03834">
        <ele>1378</ele>
        <time>2015-02-26T11:09:46Z</time>
      </trkpt>
      <trkpt lat="45.70785" lon="6.0385">
        <ele>1378</ele>
        <time>2015-02-26T11:09:54Z</time>
      </trkpt>
      <trkpt lat="45.70794" lon="6.03876">
        <ele>1378</ele>
        <time>2015-02-26T11:10:01Z</time>
      </trkpt>
      <trkpt lat="45.70803" lon="6.03902">
        <ele>1378</ele>
        <time>2015-02-26T11:10:09Z</time>
      </trkpt>
      <trkpt lat="45.70811" lon="6.03925">
        <ele>1379</ele>
        <time>2015-02-26T11:10:27Z</time>
      </trkpt>
      <trkpt lat="45.70828" lon="6.03936">
        <ele>1378</ele>
        <time>2015-02-26T11:11:14Z</time>
      </trkpt>
      <trkpt lat="45.70845" lon="6.03931">
        <ele>1378</ele>
        <time>2015-02-26T11:11:28Z</time>
      </trkpt>
      <trkpt lat="45.70862" lon="6.0392">
        <ele>1378</ele>
        <time>2015-02-26T11:12:04Z</time>
      </trkpt>
      <trkpt lat="45.70878" lon="6.03907">
        <ele>1379</ele>
        <time>2015-02-26T11:12:24Z</time>
      </trkpt>
      <trkpt lat="45.70895" lon="6.039">
        <ele>1380</ele>
        <time>2015-02-26T11:12:42Z</time>
      </trkpt>
      <trkpt lat="45.70913" lon="6.03891">
        <ele>1380</ele>
        <time>2015-02-26T11:13:04Z</time>
      </trkpt>
      <trkpt lat="45.70931" lon="6.03892">
        <ele>1384</ele>
        <time>2015-02-26T11:13:12Z</time>
      </trkpt>
      <trkpt lat="45.70946" lon="6.03908">
        <ele>1384</ele>
        <time>2015-02-26T11:13:17Z</time>
      </trkpt>
      <trkpt lat="45.70949" lon="6.03934">
        <ele>1383</ele>
        <time>2015-02-26T11:13:27Z</time>
      </trkpt>
      <trkpt lat="45.70951" lon="6.0396">
        <ele>1383</ele>
        <time>2015-02-26T11:13:53Z</time>
      </trkpt>
      <trkpt lat="45.70953" lon="6.03987">
        <ele>1383</ele>
        <time>2015-02-26T11:14:11Z</time>
      </trkpt>
      <trkpt lat="45.70948" lon="6.04015">
        <ele>1381</ele>
        <time>2015-02-26T11:14:16Z</time>
      </trkpt>
      <trkpt lat="45.70941" lon="6.04039">
        <ele>1380</ele>
        <time>2015-02-26T11:14:21Z</time>
      </trkpt>
      <trkpt lat="45.70938" lon="6.04068">
        <ele>1379</ele>
        <time>2015-02-26T11:14:28Z</time>
      </trkpt>
      <trkpt lat="45.70944" lon="6.04093">
        <ele>1375</ele>
        <time>2015-02-26T11:14:43Z</time>
      </trkpt>
      <trkpt lat="45.70945" lon="6.0412">
        <ele>1373</ele>
        <time>2015-02-26T11:14:54Z</time>
      </trkpt>
      <trkpt lat="45.70944" lon="6.04147">
        <ele>1372</ele>
        <time>2015-02-26T11:15:23Z</time>
      </trkpt>
      <trkpt lat="45.70936" lon="6.04171">
        <ele>1367</ele>
        <time>2015-02-26T11:15:28Z</time>
      </trkpt>
      <trkpt lat="45.7094" lon="6.042">
        <ele>1366</ele>
        <time>2015-02-26T11:15:34Z</time>
      </trkpt>
      <trkpt lat="45.70941" lon="6.04226">
        <ele>1364</ele>
        <time>2015-02-26T11:15:44Z</time>
      </trkpt>
      <trkpt lat="45.70948" lon="6.04251">
        <ele>1360</ele>
        <time>2015-02-26T11:16:09Z</time>
      </trkpt>
      <trkpt lat="45.70968" lon="6.04254">
        <ele>1358</ele>
        <time>2015-02-26T11:16:46Z</time>
      </trkpt>
      <trkpt lat="45.70986" lon="6.04255">
        <ele>1358</ele>
        <time>2015-02-26T11:16:52Z</time>
      </trkpt>
      <trkpt lat="45.71004" lon="6.04258">
        <ele>1354</ele>
        <time>2015-02-26T11:16:58Z</time>
      </trkpt>
      <trkpt lat="45.7102" lon="6.04272">
        <ele>1349</ele>
        <time>2015-02-26T11:17:11Z</time>
      </trkpt>
      <trkpt lat="45.71014" lon="6.04298">
        <ele>1347</ele>
        <time>2015-02-26T11:17:21Z</time>
      </trkpt>
      <trkpt lat="45.70999" lon="6.04314">
        <ele>1354</ele>
        <time>2015-02-26T11:17:31Z</time>
      </trkpt>
      <trkpt lat="45.7099" lon="6.04337">
        <ele>1349</ele>
        <time>2015-02-26T11:17:39Z</time>
      </trkpt>
      <trkpt lat="45.70995" lon="6.04363">
        <ele>1348</ele>
        <time>2015-02-26T11:17:49Z</time>
      </trkpt>
      <trkpt lat="45.71013" lon="6.04358">
        <ele>1341</ele>
        <time>2015-02-26T11:18:04Z</time>
      </trkpt>
      <trkpt lat="45.7103" lon="6.04344">
        <ele>1340</ele>
        <time>2015-02-26T11:18:29Z</time>
      </trkpt>
      <trkpt lat="45.71047" lon="6.04332">
        <ele>1343</ele>
        <time>2015-02-26T11:18:41Z</time>
      </trkpt>
      <trkpt lat="45.71058" lon="6.04309">
        <ele>1343</ele>
        <time>2015-02-26T11:18:51Z</time>
      </trkpt>
      <trkpt lat="45.7107" lon="6.04289">
        <ele>1343</ele>
        <time>2015-02-26T11:19:02Z</time>
      </trkpt>
      <trkpt lat="45.71079" lon="6.04265">
        <ele>1342</ele>
        <time>2015-02-26T11:19:17Z</time>
      </trkpt>
      <trkpt lat="45.71089" lon="6.04242">
        <ele>1340</ele>
        <time>2015-02-26T11:19:35Z</time>
      </trkpt>
      <trkpt lat="45.711" lon="6.04218">
        <ele>1340</ele>
        <time>2015-02-26T11:19:47Z</time>
      </trkpt>
      <trkpt lat="45.7111" lon="6.04195">
        <ele>1341</ele>
        <time>2015-02-26T11:19:58Z</time>
      </trkpt>
      <trkpt lat="45.71126" lon="6.04182">
        <ele>1340</ele>
        <time>2015-02-26T11:20:12Z</time>
      </trkpt>
      <trkpt lat="45.71142" lon="6.04167">
        <ele>1339</ele>
        <time>2015-02-26T11:20:20Z</time>
      </trkpt>
      <trkpt lat="45.7116" lon="6.04154">
        <ele>1345</ele>
        <time>2015-02-26T11:20:28Z</time>
      </trkpt>
      <trkpt lat="45.71177" lon="6.04143">
        <ele>1340</ele>
        <time>2015-02-26T11:20:35Z</time>
      </trkpt>
      <trkpt lat="45.71195" lon="6.04133">
        <ele>1340</ele>
        <time>2015-02-26T11:20:43Z</time>
      </trkpt>
      <trkpt lat="45.71212" lon="6.04124">
        <ele>1339</ele>
        <time>2015-02-26T11:20:52Z</time>
      </trkpt>
      <trkpt lat="45.71229" lon="6.04112">
        <ele>1339</ele>
        <time>2015-02-26T11:21:04Z</time>
      </trkpt>
      <trkpt lat="45.71244" lon="6.04097">
        <ele>1340</ele>
        <time>2015-02-26T11:21:20Z</time>
      </trkpt>
      <trkpt lat="45.71263" lon="6.04099">
        <ele>1333</ele>
        <time>2015-02-26T11:21:51Z</time>
      </trkpt>
      <trkpt lat="45.7128" lon="6.04106">
        <ele>1330</ele>
        <time>2015-02-26T11:22:04Z</time>
      </trkpt>
      <trkpt lat="45.71298" lon="6.04096">
        <ele>1329</ele>
        <time>2015-02-26T11:22:20Z</time>
      </trkpt>
      <trkpt lat="45.71317" lon="6.04087">
        <ele>1328</ele>
        <time>2015-02-26T11:22:26Z</time>
      </trkpt>
      <trkpt lat="45.71337" lon="6.04078">
        <ele>1329</ele>
        <time>2015-02-26T11:22:33Z</time>
      </trkpt>
      <trkpt lat="45.71357" lon="6.04074">
        <ele>1330</ele>
        <time>2015-02-26T11:22:45Z</time>
      </trkpt>
      <trkpt lat="45.71374" lon="6.04078">
        <ele>1330</ele>
        <time>2015-02-26T11:23:00Z</time>
      </trkpt>
      <trkpt lat="45.71393" lon="6.04085">
        <ele>1319</ele>
        <time>2015-02-26T11:23:19Z</time>
      </trkpt>
      <trkpt lat="45.7141" lon="6.0409">
        <ele>1319</ele>
        <time>2015-02-26T11:23:37Z</time>
      </trkpt>
      <trkpt lat="45.71428" lon="6.04083">
        <ele>1320</ele>
        <time>2015-02-26T11:23:54Z</time>
      </trkpt>
      <trkpt lat="45.71447" lon="6.0408">
        <ele>1319</ele>
        <time>2015-02-26T11:24:04Z</time>
      </trkpt>
      <trkpt lat="45.71469" lon="6.04077">
        <ele>1317</ele>
        <time>2015-02-26T11:24:12Z</time>
      </trkpt>
      <trkpt lat="45.7149" lon="6.04068">
        <ele>1314</ele>
        <time>2015-02-26T11:24:17Z</time>
      </trkpt>
      <trkpt lat="45.71508" lon="6.04058">
        <ele>1306</ele>
        <time>2015-02-26T11:24:22Z</time>
      </trkpt>
      <trkpt lat="45.71521" lon="6.04041">
        <ele>1306</ele>
        <time>2015-02-26T11:24:43Z</time>
      </trkpt>
      <trkpt lat="45.71536" lon="6.04026">
        <ele>1305</ele>
        <time>2015-02-26T11:24:55Z</time>
      </trkpt>
      <trkpt lat="45.71543" lon="6.04002">
        <ele>1305</ele>
        <time>2015-02-26T11:25:17Z</time>
      </trkpt>
      <trkpt lat="45.71541" lon="6.03976">
        <ele>1313</ele>
        <time>2015-02-26T11:25:46Z</time>
      </trkpt>
      <trkpt lat="45.71545" lon="6.0395">
        <ele>1313</ele>
        <time>2015-02-26T11:26:03Z</time>
      </trkpt>
      <trkpt lat="45.71552" lon="6.03923">
        <ele>1313</ele>
        <time>2015-02-26T11:26:23Z</time>
      </trkpt>
      <trkpt lat="45.71562" lon="6.03897">
        <ele>1318</ele>
        <time>2015-02-26T11:26:30Z</time>
      </trkpt>
      <trkpt lat="45.71567" lon="6.03872">
        <ele>1321</ele>
        <time>2015-02-26T11:26:34Z</time>
      </trkpt>
      <trkpt lat="45.71577" lon="6.03849">
        <ele>1320</ele>
        <time>2015-02-26T11:26:45Z</time>
      </trkpt>
      <trkpt lat="45.71587" lon="6.03826">
        <ele>1315</ele>
        <time>2015-02-26T11:26:59Z</time>
      </trkpt>
      <trkpt lat="45.71591" lon="6.038">
        <ele>1313</ele>
        <time>2015-02-26T11:27:12Z</time>
      </trkpt>
      <trkpt lat="45.71601" lon="6.03777">
        <ele>1313</ele>
        <time>2015-02-26T11:27:23Z</time>
      </trkpt>
      <trkpt lat="45.71597" lon="6.0375">
        <ele>1315</ele>
        <time>2015-02-26T11:27:29Z</time>
      </trkpt>
      <trkpt lat="45.71598" lon="6.03724">
        <ele>1313</ele>
        <time>2015-02-26T11:27:41Z</time>
      </trkpt>
      <trkpt lat="45.71598" lon="6.03698">
        <ele>1313</ele>
        <time>2015-02-26T11:28:15Z</time>
      </trkpt>
      <trkpt lat="45.71599" lon="6.03669">
        <ele>1314</ele>
        <time>2015-02-26T11:28:28Z</time>
      </trkpt>
      <trkpt lat="45.71602" lon="6.03642">
        <ele>1313</ele>
        <time>2015-02-26T11:28:36Z</time>
      </trkpt>
      <trkpt lat="45.71611" lon="6.03619">
        <ele>1312</ele>
        <time>2015-02-26T11:28:56Z</time>
      </trkpt>
      <trkpt lat="45.71619" lon="6.03643">
        <ele>1311</ele>
        <time>2015-02-26T11:31:16Z</time>
      </trkpt>
      <trkpt lat="45.7162" lon="6.03669">
        <ele>1311</ele>
        <time>2015-02-26T11:31:36Z</time>
      </trkpt>
      <trkpt lat="45.71638" lon="6.03676">
        <ele>1308</ele>
        <time>2015-02-26T11:32:02Z</time>
      </trkpt>
      <trkpt lat="45.71655" lon="6.03665">
        <ele>1306</ele>
        <time>2015-02-26T11:32:34Z</time>
      </trkpt>
      <trkpt lat="45.71672" lon="6.03669">
        <ele>1304</ele>
        <time>2015-02-26T11:33:04Z</time>
      </trkpt>
      <trkpt lat="45.7169" lon="6.03679">
        <ele>1308</ele>
        <time>2015-02-26T11:33:22Z</time>
      </trkpt>
      <trkpt lat="45.71702" lon="6.037">
        <ele>1311</ele>
        <time>2015-02-26T11:33:41Z</time>
      </trkpt>
      <trkpt lat="45.7171" lon="6.03724">
        <ele>1312</ele>
        <time>2015-02-26T11:34:03Z</time>
      </trkpt>
      <trkpt lat="45.71726" lon="6.03713">
        <ele>1314</ele>
        <time>2015-02-26T11:37:25Z</time>
      </trkpt>
      <trkpt lat="45.71738" lon="6.03692">
        <ele>1314</ele>
        <time>2015-02-26T11:37:51Z</time>
      </trkpt>
      <trkpt lat="45.71753" lon="6.03678">
        <ele>1323</ele>
        <time>2015-02-26T11:38:15Z</time>
      </trkpt>
      <trkpt lat="45.71769" lon="6.03667">
        <ele>1326</ele>
        <time>2015-02-26T11:38:38Z</time>
      </trkpt>
      <trkpt lat="45.71769" lon="6.03641">
        <ele>1328</ele>
        <time>2015-02-26T11:39:10Z</time>
      </trkpt>
      <trkpt lat="45.71762" lon="6.03617">
        <ele>1329</ele>
        <time>2015-02-26T11:39:42Z</time>
      </trkpt>
      <trkpt lat="45.71758" lon="6.03592">
        <ele>1328</ele>
        <time>2015-02-26T11:40:05Z</time>
      </trkpt>
      <trkpt lat="45.71751" lon="6.03568">
        <ele>1333</ele>
        <time>2015-02-26T11:40:35Z</time>
      </trkpt>
      <trkpt lat="45.71736" lon="6.03554">
        <ele>1325</ele>
        <time>2015-02-26T11:40:56Z</time>
      </trkpt>
      <trkpt lat="45.71719" lon="6.03542">
        <ele>1325</ele>
        <time>2015-02-26T11:41:19Z</time>
      </trkpt>
      <trkpt lat="45.71727" lon="6.03519">
        <ele>1328</ele>
        <time>2015-02-26T11:41:54Z</time>
      </trkpt>
      <trkpt lat="45.71745" lon="6.03512">
        <ele>1334</ele>
        <time>2015-02-26T11:42:14Z</time>
      </trkpt>
      <trkpt lat="45.71764" lon="6.03505">
        <ele>1341</ele>
        <time>2015-02-26T11:42:28Z</time>
      </trkpt>
      <trkpt lat="45.71779" lon="6.0349">
        <ele>1349</ele>
        <time>2015-02-26T11:42:50Z</time>
      </trkpt>
      <trkpt lat="45.71793" lon="6.03509">
        <ele>1343</ele>
        <time>2015-02-26T11:43:17Z</time>
      </trkpt>
      <trkpt lat="45.71804" lon="6.0353">
        <ele>1343</ele>
        <time>2015-02-26T11:43:33Z</time>
      </trkpt>
      <trkpt lat="45.71816" lon="6.0355">
        <ele>1343</ele>
        <time>2015-02-26T11:43:55Z</time>
      </trkpt>
      <trkpt lat="45.71824" lon="6.03574">
        <ele>1343</ele>
        <time>2015-02-26T11:44:17Z</time>
      </trkpt>
      <trkpt lat="45.71833" lon="6.03597">
        <ele>1339</ele>
        <time>2015-02-26T11:44:57Z</time>
      </trkpt>
      <trkpt lat="45.71848" lon="6.03612">
        <ele>1349</ele>
        <time>2015-02-26T11:45:17Z</time>
      </trkpt>
      <trkpt lat="45.7186" lon="6.03631">
        <ele>1350</ele>
        <time>2015-02-26T11:45:36Z</time>
      </trkpt>
      <trkpt lat="45.71873" lon="6.03651">
        <ele>1350</ele>
        <time>2015-02-26T11:46:17Z</time>
      </trkpt>
      <trkpt lat="45.71888" lon="6.03666">
        <ele>1352</ele>
        <time>2015-02-26T11:46:39Z</time>
      </trkpt>
      <trkpt lat="45.71907" lon="6.03668">
        <ele>1355</ele>
        <time>2015-02-26T11:47:01Z</time>
      </trkpt>
      <trkpt lat="45.71925" lon="6.03673">
        <ele>1358</ele>
        <time>2015-02-26T11:47:27Z</time>
      </trkpt>
      <trkpt lat="45.71943" lon="6.0368">
        <ele>1361</ele>
        <time>2015-02-26T11:47:47Z</time>
      </trkpt>
      <trkpt lat="45.71962" lon="6.0368">
        <ele>1362</ele>
        <time>2015-02-26T11:48:12Z</time>
      </trkpt>
      <trkpt lat="45.7198" lon="6.0368">
        <ele>1363</ele>
        <time>2015-02-26T11:48:30Z</time>
      </trkpt>
      <trkpt lat="45.71999" lon="6.0368">
        <ele>1364</ele>
        <time>2015-02-26T11:48:43Z</time>
      </trkpt>
      <trkpt lat="45.72018" lon="6.03681">
        <ele>1362</ele>
        <time>2015-02-26T11:50:24Z</time>
      </trkpt>
      <trkpt lat="45.72037" lon="6.03677">
        <ele>1361</ele>
        <time>2015-02-26T11:50:39Z</time>
      </trkpt>
      <trkpt lat="45.72056" lon="6.03673">
        <ele>1360</ele>
        <time>2015-02-26T11:50:49Z</time>
      </trkpt>
      <trkpt lat="45.72074" lon="6.03673">
        <ele>1359</ele>
        <time>2015-02-26T11:50:57Z</time>
      </trkpt>
      <trkpt lat="45.72094" lon="6.03672">
        <ele>1356</ele>
        <time>2015-02-26T11:51:07Z</time>
      </trkpt>
      <trkpt lat="45.72111" lon="6.03661">
        <ele>1359</ele>
        <time>2015-02-26T11:51:15Z</time>
      </trkpt>
      <trkpt lat="45.72125" lon="6.03643">
        <ele>1359</ele>
        <time>2015-02-26T11:51:22Z</time>
      </trkpt>
      <trkpt lat="45.7214" lon="6.03631">
        <ele>1359</ele>
        <time>2015-02-26T11:51:57Z</time>
      </trkpt>
      <trkpt lat="45.72159" lon="6.03625">
        <ele>1359</ele>
        <time>2015-02-26T11:52:22Z</time>
      </trkpt>
      <trkpt lat="45.72176" lon="6.03612">
        <ele>1352</ele>
        <time>2015-02-26T11:52:44Z</time>
      </trkpt>
      <trkpt lat="45.7219" lon="6.03596">
        <ele>1352</ele>
        <time>2015-02-26T11:53:12Z</time>
      </trkpt>
      <trkpt lat="45.72196" lon="6.0357">
        <ele>1360</ele>
        <time>2015-02-26T11:53:34Z</time>
      </trkpt>
      <trkpt lat="45.72209" lon="6.03552">
        <ele>1360</ele>
        <time>2015-02-26T11:55:25Z</time>
      </trkpt>
      <trkpt lat="45.72218" lon="6.0353">
        <ele>1360</ele>
        <time>2015-02-26T11:55:47Z</time>
      </trkpt>
      <trkpt lat="45.72231" lon="6.03511">
        <ele>1358</ele>
        <time>2015-02-26T11:56:23Z</time>
      </trkpt>
      <trkpt lat="45.72261" lon="6.03488">
        <ele>1348</ele>
        <time>2015-02-26T12:33:27Z</time>
      </trkpt>
      <trkpt lat="45.72241" lon="6.03496">
        <ele>1360</ele>
        <time>2015-02-26T12:33:57Z</time>
      </trkpt>
      <trkpt lat="45.72226" lon="6.0348">
        <ele>1367</ele>
        <time>2015-02-26T13:08:40Z</time>
      </trkpt>
      <trkpt lat="45.72232" lon="6.03504">
        <ele>1358</ele>
        <time>2015-02-26T13:16:30Z</time>
      </trkpt>
      <trkpt lat="45.72221" lon="6.03528">
        <ele>1360</ele>
        <time>2015-02-26T13:17:27Z</time>
      </trkpt>
      <trkpt lat="45.72207" lon="6.03545">
        <ele>1360</ele>
        <time>2015-02-26T13:17:37Z</time>
      </trkpt>
      <trkpt lat="45.72198" lon="6.03568">
        <ele>1360</ele>
        <time>2015-02-26T13:17:51Z</time>
      </trkpt>
      <trkpt lat="45.72191" lon="6.03592">
        <ele>1353</ele>
        <time>2015-02-26T13:18:08Z</time>
      </trkpt>
      <trkpt lat="45.72175" lon="6.03605">
        <ele>1354</ele>
        <time>2015-02-26T13:18:17Z</time>
      </trkpt>
      <trkpt lat="45.72158" lon="6.03614">
        <ele>1360</ele>
        <time>2015-02-26T13:18:22Z</time>
      </trkpt>
      <trkpt lat="45.72139" lon="6.03627">
        <ele>1360</ele>
        <time>2015-02-26T13:18:28Z</time>
      </trkpt>
      <trkpt lat="45.72125" lon="6.03647">
        <ele>1359</ele>
        <time>2015-02-26T13:18:33Z</time>
      </trkpt>
      <trkpt lat="45.72111" lon="6.03664">
        <ele>1359</ele>
        <time>2015-02-26T13:19:11Z</time>
      </trkpt>
      <trkpt lat="45.72093" lon="6.03671">
        <ele>1356</ele>
        <time>2015-02-26T13:19:30Z</time>
      </trkpt>
      <trkpt lat="45.72075" lon="6.03671">
        <ele>1359</ele>
        <time>2015-02-26T13:19:43Z</time>
      </trkpt>
      <trkpt lat="45.72057" lon="6.03672">
        <ele>1360</ele>
        <time>2015-02-26T13:20:00Z</time>
      </trkpt>
      <trkpt lat="45.72039" lon="6.0368">
        <ele>1360</ele>
        <time>2015-02-26T13:20:21Z</time>
      </trkpt>
      <trkpt lat="45.72021" lon="6.03683">
        <ele>1361</ele>
        <time>2015-02-26T13:20:41Z</time>
      </trkpt>
      <trkpt lat="45.72011" lon="6.0366">
        <ele>1367</ele>
        <time>2015-02-26T13:26:09Z</time>
      </trkpt>
      <trkpt lat="45.72009" lon="6.03634">
        <ele>1369</ele>
        <time>2015-02-26T13:26:35Z</time>
      </trkpt>
      <trkpt lat="45.72007" lon="6.03608">
        <ele>1372</ele>
        <time>2015-02-26T13:27:06Z</time>
      </trkpt>
      <trkpt lat="45.72017" lon="6.03586">
        <ele>1374</ele>
        <time>2015-02-26T13:27:43Z</time>
      </trkpt>
      <trkpt lat="45.72014" lon="6.03561">
        <ele>1384</ele>
        <time>2015-02-26T13:29:25Z</time>
      </trkpt>
      <trkpt lat="45.72009" lon="6.03535">
        <ele>1388</ele>
        <time>2015-02-26T13:30:23Z</time>
      </trkpt>
      <trkpt lat="45.71999" lon="6.03514">
        <ele>1390</ele>
        <time>2015-02-26T13:30:55Z</time>
      </trkpt>
      <trkpt lat="45.71997" lon="6.03487">
        <ele>1397</ele>
        <time>2015-02-26T13:31:22Z</time>
      </trkpt>
      <trkpt lat="45.71994" lon="6.03461">
        <ele>1398</ele>
        <time>2015-02-26T13:36:32Z</time>
      </trkpt>
      <trkpt lat="45.72003" lon="6.03439">
        <ele>1408</ele>
        <time>2015-02-26T13:37:04Z</time>
      </trkpt>
      <trkpt lat="45.72013" lon="6.03416">
        <ele>1416</ele>
        <time>2015-02-26T13:37:37Z</time>
      </trkpt>
      <trkpt lat="45.72016" lon="6.0339">
        <ele>1419</ele>
        <time>2015-02-26T13:38:03Z</time>
      </trkpt>
      <trkpt lat="45.72019" lon="6.03364">
        <ele>1421</ele>
        <time>2015-02-26T13:38:43Z</time>
      </trkpt>
      <trkpt lat="45.72008" lon="6.03343">
        <ele>1424</ele>
        <time>2015-02-26T13:39:13Z</time>
      </trkpt>
      <trkpt lat="45.72004" lon="6.03317">
        <ele>1430</ele>
        <time>2015-02-26T13:40:07Z</time>
      </trkpt>
      <trkpt lat="45.72001" lon="6.03291">
        <ele>1434</ele>
        <time>2015-02-26T13:40:32Z</time>
      </trkpt>
      <trkpt lat="45.71994" lon="6.03266">
        <ele>1433</ele>
        <time>2015-02-26T13:40:58Z</time>
      </trkpt>
      <trkpt lat="45.7199" lon="6.0324">
        <ele>1435</ele>
        <time>2015-02-26T13:41:33Z</time>
      </trkpt>
      <trkpt lat="45.72003" lon="6.03222">
        <ele>1437</ele>
        <time>2015-02-26T13:42:06Z</time>
      </trkpt>
      <trkpt lat="45.72019" lon="6.0321">
        <ele>1436</ele>
        <time>2015-02-26T13:42:54Z</time>
      </trkpt>
      <trkpt lat="45.72036" lon="6.03196">
        <ele>1436</ele>
        <time>2015-02-26T13:43:30Z</time>
      </trkpt>
      <trkpt lat="45.7205" lon="6.03179">
        <ele>1436</ele>
        <time>2015-02-26T13:43:45Z</time>
      </trkpt>
      <trkpt lat="45.7206" lon="6.03158">
        <ele>1428</ele>
        <time>2015-02-26T13:44:24Z</time>
      </trkpt>
      <trkpt lat="45.72051" lon="6.03182">
        <ele>1436</ele>
        <time>2015-02-26T13:49:52Z</time>
      </trkpt>
      <trkpt lat="45.72037" lon="6.03198">
        <ele>1436</ele>
        <time>2015-02-26T13:51:23Z</time>
      </trkpt>
      <trkpt lat="45.72019" lon="6.03204">
        <ele>1436</ele>
        <time>2015-02-26T13:51:48Z</time>
      </trkpt>
      <trkpt lat="45.72004" lon="6.03219">
        <ele>1437</ele>
        <time>2015-02-26T13:52:08Z</time>
      </trkpt>
      <trkpt lat="45.71989" lon="6.03234">
        <ele>1434</ele>
        <time>2015-02-26T13:52:21Z</time>
      </trkpt>
      <trkpt lat="45.71979" lon="6.03256">
        <ele>1431</ele>
        <time>2015-02-26T13:52:45Z</time>
      </trkpt>
      <trkpt lat="45.71962" lon="6.03267">
        <ele>1428</ele>
        <time>2015-02-26T13:53:19Z</time>
      </trkpt>
      <trkpt lat="45.71944" lon="6.0327">
        <ele>1425</ele>
        <time>2015-02-26T13:53:59Z</time>
      </trkpt>
      <trkpt lat="45.71931" lon="6.03252">
        <ele>1426</ele>
        <time>2015-02-26T13:54:37Z</time>
      </trkpt>
      <trkpt lat="45.71915" lon="6.03239">
        <ele>1422</ele>
        <time>2015-02-26T13:55:16Z</time>
      </trkpt>
      <trkpt lat="45.71905" lon="6.03216">
        <ele>1418</ele>
        <time>2015-02-26T13:55:52Z</time>
      </trkpt>
      <trkpt lat="45.7189" lon="6.03201">
        <ele>1417</ele>
        <time>2015-02-26T13:56:22Z</time>
      </trkpt>
      <trkpt lat="45.71873" lon="6.03189">
        <ele>1415</ele>
        <time>2015-02-26T13:56:37Z</time>
      </trkpt>
      <trkpt lat="45.71856" lon="6.03181">
        <ele>1414</ele>
        <time>2015-02-26T13:56:56Z</time>
      </trkpt>
      <trkpt lat="45.7184" lon="6.0317">
        <ele>1413</ele>
        <time>2015-02-26T13:57:20Z</time>
      </trkpt>
      <trkpt lat="45.71822" lon="6.03168">
        <ele>1406</ele>
        <time>2015-02-26T13:57:39Z</time>
      </trkpt>
      <trkpt lat="45.71804" lon="6.03161">
        <ele>1401</ele>
        <time>2015-02-26T13:58:22Z</time>
      </trkpt>
      <trkpt lat="45.71789" lon="6.03146">
        <ele>1398</ele>
        <time>2015-02-26T13:59:01Z</time>
      </trkpt>
      <trkpt lat="45.71777" lon="6.03126">
        <ele>1396</ele>
        <time>2015-02-26T13:59:49Z</time>
      </trkpt>
      <trkpt lat="45.71766" lon="6.03106">
        <ele>1394</ele>
        <time>2015-02-26T14:00:44Z</time>
      </trkpt>
      <trkpt lat="45.71753" lon="6.03088">
        <ele>1391</ele>
        <time>2015-02-26T14:01:09Z</time>
      </trkpt>
      <trkpt lat="45.71735" lon="6.0308">
        <ele>1380</ele>
        <time>2015-02-26T14:01:58Z</time>
      </trkpt>
      <trkpt lat="45.71717" lon="6.03077">
        <ele>1373</ele>
        <time>2015-02-26T14:02:22Z</time>
      </trkpt>
      <trkpt lat="45.717" lon="6.03066">
        <ele>1369</ele>
        <time>2015-02-26T14:02:50Z</time>
      </trkpt>
      <trkpt lat="45.71685" lon="6.03051">
        <ele>1363</ele>
        <time>2015-02-26T14:04:09Z</time>
      </trkpt>
      <trkpt lat="45.71667" lon="6.03042">
        <ele>1358</ele>
        <time>2015-02-26T14:05:34Z</time>
      </trkpt>
      <trkpt lat="45.71649" lon="6.03033">
        <ele>1329</ele>
        <time>2015-02-26T14:05:53Z</time>
      </trkpt>
      <trkpt lat="45.71631" lon="6.0303">
        <ele>1326</ele>
        <time>2015-02-26T14:06:14Z</time>
      </trkpt>
      <trkpt lat="45.71613" lon="6.03024">
        <ele>1318</ele>
        <time>2015-02-26T14:08:29Z</time>
      </trkpt>
      <trkpt lat="45.71599" lon="6.0304">
        <ele>1325</ele>
        <time>2015-02-26T14:11:13Z</time>
      </trkpt>
      <trkpt lat="45.71584" lon="6.03056">
        <ele>1335</ele>
        <time>2015-02-26T14:11:38Z</time>
      </trkpt>
      <trkpt lat="45.71566" lon="6.0306">
        <ele>1315</ele>
        <time>2015-02-26T14:12:24Z</time>
      </trkpt>
      <trkpt lat="45.71547" lon="6.03062">
        <ele>1308</ele>
        <time>2015-02-26T14:13:00Z</time>
      </trkpt>
      <trkpt lat="45.71538" lon="6.03085">
        <ele>1333</ele>
        <time>2015-02-26T14:13:19Z</time>
      </trkpt>
      <trkpt lat="45.71539" lon="6.03111">
        <ele>1334</ele>
        <time>2015-02-26T14:13:41Z</time>
      </trkpt>
      <trkpt lat="45.71537" lon="6.03137">
        <ele>1334</ele>
        <time>2015-02-26T14:16:17Z</time>
      </trkpt>
      <trkpt lat="45.71537" lon="6.03163">
        <ele>1334</ele>
        <time>2015-02-26T14:16:49Z</time>
      </trkpt>
      <trkpt lat="45.71526" lon="6.03185">
        <ele>1335</ele>
        <time>2015-02-26T14:17:21Z</time>
      </trkpt>
      <trkpt lat="45.71517" lon="6.03208">
        <ele>1337</ele>
        <time>2015-02-26T14:18:41Z</time>
      </trkpt>
      <trkpt lat="45.71529" lon="6.03228">
        <ele>1338</ele>
        <time>2015-02-26T14:22:05Z</time>
      </trkpt>
      <trkpt lat="45.71541" lon="6.03249">
        <ele>1338</ele>
        <time>2015-02-26T14:22:39Z</time>
      </trkpt>
      <trkpt lat="45.71549" lon="6.03274">
        <ele>1338</ele>
        <time>2015-02-26T14:22:59Z</time>
      </trkpt>
      <trkpt lat="45.71559" lon="6.03296">
        <ele>1336</ele>
        <time>2015-02-26T14:23:30Z</time>
      </trkpt>
      <trkpt lat="45.71571" lon="6.03317">
        <ele>1329</ele>
        <time>2015-02-26T14:23:55Z</time>
      </trkpt>
      <trkpt lat="45.71586" lon="6.03332">
        <ele>1318</ele>
        <time>2015-02-26T14:24:11Z</time>
      </trkpt>
      <trkpt lat="45.71602" lon="6.03345">
        <ele>1317</ele>
        <time>2015-02-26T14:24:30Z</time>
      </trkpt>
      <trkpt lat="45.71617" lon="6.03359">
        <ele>1318</ele>
        <time>2015-02-26T14:24:58Z</time>
      </trkpt>
      <trkpt lat="45.71623" lon="6.03384">
        <ele>1317</ele>
        <time>2015-02-26T14:25:27Z</time>
      </trkpt>
      <trkpt lat="45.71625" lon="6.0341">
        <ele>1317</ele>
        <time>2015-02-26T14:25:46Z</time>
      </trkpt>
      <trkpt lat="45.71625" lon="6.03436">
        <ele>1315</ele>
        <time>2015-02-26T14:26:07Z</time>
      </trkpt>
      <trkpt lat="45.71622" lon="6.03462">
        <ele>1314</ele>
        <time>2015-02-26T14:26:29Z</time>
      </trkpt>
      <trkpt lat="45.71614" lon="6.03485">
        <ele>1313</ele>
        <time>2015-02-26T14:26:59Z</time>
      </trkpt>
      <trkpt lat="45.71612" lon="6.03512">
        <ele>1312</ele>
        <time>2015-02-26T14:27:16Z</time>
      </trkpt>
      <trkpt lat="45.71611" lon="6.03538">
        <ele>1312</ele>
        <time>2015-02-26T14:27:34Z</time>
      </trkpt>
      <trkpt lat="45.7161" lon="6.03565">
        <ele>1313</ele>
        <time>2015-02-26T14:27:47Z</time>
      </trkpt>
      <trkpt lat="45.71609" lon="6.03592">
        <ele>1312</ele>
        <time>2015-02-26T14:28:01Z</time>
      </trkpt>
      <trkpt lat="45.71599" lon="6.03614">
        <ele>1312</ele>
        <time>2015-02-26T14:30:44Z</time>
      </trkpt>
      <trkpt lat="45.71595" lon="6.0364">
        <ele>1313</ele>
        <time>2015-02-26T14:31:03Z</time>
      </trkpt>
      <trkpt lat="45.71591" lon="6.03666">
        <ele>1316</ele>
        <time>2015-02-26T14:31:22Z</time>
      </trkpt>
      <trkpt lat="45.71593" lon="6.03692">
        <ele>1313</ele>
        <time>2015-02-26T14:31:44Z</time>
      </trkpt>
      <trkpt lat="45.71586" lon="6.03717">
        <ele>1314</ele>
        <time>2015-02-26T14:32:06Z</time>
      </trkpt>
      <trkpt lat="45.7158" lon="6.03741">
        <ele>1324</ele>
        <time>2015-02-26T14:32:30Z</time>
      </trkpt>
      <trkpt lat="45.71583" lon="6.03767">
        <ele>1325</ele>
        <time>2015-02-26T14:32:58Z</time>
      </trkpt>
      <trkpt lat="45.71577" lon="6.03793">
        <ele>1328</ele>
        <time>2015-02-26T14:33:21Z</time>
      </trkpt>
      <trkpt lat="45.71568" lon="6.03817">
        <ele>1326</ele>
        <time>2015-02-26T14:33:32Z</time>
      </trkpt>
      <trkpt lat="45.71569" lon="6.03843">
        <ele>1320</ele>
        <time>2015-02-26T14:33:46Z</time>
      </trkpt>
      <trkpt lat="45.71568" lon="6.03869">
        <ele>1321</ele>
        <time>2015-02-26T14:34:00Z</time>
      </trkpt>
      <trkpt lat="45.71558" lon="6.03891">
        <ele>1320</ele>
        <time>2015-02-26T14:34:16Z</time>
      </trkpt>
      <trkpt lat="45.71548" lon="6.03914">
        <ele>1320</ele>
        <time>2015-02-26T14:34:33Z</time>
      </trkpt>
      <trkpt lat="45.71543" lon="6.03939">
        <ele>1314</ele>
        <time>2015-02-26T14:34:46Z</time>
      </trkpt>
      <trkpt lat="45.71533" lon="6.03963">
        <ele>1315</ele>
        <time>2015-02-26T14:34:57Z</time>
      </trkpt>
      <trkpt lat="45.71519" lon="6.03982">
        <ele>1316</ele>
        <time>2015-02-26T14:35:06Z</time>
      </trkpt>
      <trkpt lat="45.71511" lon="6.04006">
        <ele>1313</ele>
        <time>2015-02-26T14:35:15Z</time>
      </trkpt>
      <trkpt lat="45.71502" lon="6.0403">
        <ele>1309</ele>
        <time>2015-02-26T14:35:26Z</time>
      </trkpt>
      <trkpt lat="45.71489" lon="6.04049">
        <ele>1318</ele>
        <time>2015-02-26T14:35:43Z</time>
      </trkpt>
      <trkpt lat="45.71472" lon="6.0406">
        <ele>1318</ele>
        <time>2015-02-26T14:36:00Z</time>
      </trkpt>
      <trkpt lat="45.71455" lon="6.04069">
        <ele>1319</ele>
        <time>2015-02-26T14:36:20Z</time>
      </trkpt>
      <trkpt lat="45.71436" lon="6.0407">
        <ele>1320</ele>
        <time>2015-02-26T14:36:45Z</time>
      </trkpt>
      <trkpt lat="45.7142" lon="6.04081">
        <ele>1320</ele>
        <time>2015-02-26T14:37:02Z</time>
      </trkpt>
      <trkpt lat="45.71401" lon="6.04081">
        <ele>1326</ele>
        <time>2015-02-26T14:37:17Z</time>
      </trkpt>
      <trkpt lat="45.71383" lon="6.04074">
        <ele>1329</ele>
        <time>2015-02-26T14:37:34Z</time>
      </trkpt>
      <trkpt lat="45.71366" lon="6.04064">
        <ele>1331</ele>
        <time>2015-02-26T14:37:49Z</time>
      </trkpt>
      <trkpt lat="45.71348" lon="6.04068">
        <ele>1331</ele>
        <time>2015-02-26T14:38:10Z</time>
      </trkpt>
      <trkpt lat="45.7133" lon="6.04071">
        <ele>1334</ele>
        <time>2015-02-26T14:38:40Z</time>
      </trkpt>
      <trkpt lat="45.71313" lon="6.04083">
        <ele>1336</ele>
        <time>2015-02-26T14:39:01Z</time>
      </trkpt>
      <trkpt lat="45.71295" lon="6.04084">
        <ele>1329</ele>
        <time>2015-02-26T14:39:26Z</time>
      </trkpt>
      <trkpt lat="45.71276" lon="6.04077">
        <ele>1341</ele>
        <time>2015-02-26T14:39:47Z</time>
      </trkpt>
      <trkpt lat="45.71258" lon="6.04075">
        <ele>1341</ele>
        <time>2015-02-26T14:40:01Z</time>
      </trkpt>
      <trkpt lat="45.71241" lon="6.04084">
        <ele>1340</ele>
        <time>2015-02-26T14:40:18Z</time>
      </trkpt>
      <trkpt lat="45.71227" lon="6.04104">
        <ele>1340</ele>
        <time>2015-02-26T14:40:34Z</time>
      </trkpt>
      <trkpt lat="45.71208" lon="6.04111">
        <ele>1341</ele>
        <time>2015-02-26T14:40:42Z</time>
      </trkpt>
      <trkpt lat="45.71191" lon="6.04118">
        <ele>1342</ele>
        <time>2015-02-26T14:40:57Z</time>
      </trkpt>
      <trkpt lat="45.71174" lon="6.04129">
        <ele>1341</ele>
        <time>2015-02-26T14:41:11Z</time>
      </trkpt>
      <trkpt lat="45.71156" lon="6.04135">
        <ele>1349</ele>
        <time>2015-02-26T14:41:27Z</time>
      </trkpt>
      <trkpt lat="45.71139" lon="6.04144">
        <ele>1350</ele>
        <time>2015-02-26T14:41:45Z</time>
      </trkpt>
      <trkpt lat="45.71123" lon="6.04156">
        <ele>1351</ele>
        <time>2015-02-26T14:41:58Z</time>
      </trkpt>
      <trkpt lat="45.71111" lon="6.04176">
        <ele>1343</ele>
        <time>2015-02-26T14:42:16Z</time>
      </trkpt>
      <trkpt lat="45.71098" lon="6.04196">
        <ele>1342</ele>
        <time>2015-02-26T14:42:28Z</time>
      </trkpt>
      <trkpt lat="45.7109" lon="6.0422">
        <ele>1340</ele>
        <time>2015-02-26T14:42:49Z</time>
      </trkpt>
      <trkpt lat="45.71076" lon="6.0424">
        <ele>1345</ele>
        <time>2015-02-26T14:43:12Z</time>
      </trkpt>
      <trkpt lat="45.71068" lon="6.04264">
        <ele>1343</ele>
        <time>2015-02-26T14:43:27Z</time>
      </trkpt>
      <trkpt lat="45.71057" lon="6.04285">
        <ele>1344</ele>
        <time>2015-02-26T14:43:41Z</time>
      </trkpt>
      <trkpt lat="45.71049" lon="6.04309">
        <ele>1344</ele>
        <time>2015-02-26T14:43:58Z</time>
      </trkpt>
      <trkpt lat="45.71036" lon="6.04329">
        <ele>1345</ele>
        <time>2015-02-26T14:44:18Z</time>
      </trkpt>
      <trkpt lat="45.71019" lon="6.04338">
        <ele>1343</ele>
        <time>2015-02-26T14:44:30Z</time>
      </trkpt>
      <trkpt lat="45.71" lon="6.04341">
        <ele>1346</ele>
        <time>2015-02-26T14:44:48Z</time>
      </trkpt>
      <trkpt lat="45.71011" lon="6.04319">
        <ele>1347</ele>
        <time>2015-02-26T14:45:22Z</time>
      </trkpt>
      <trkpt lat="45.71021" lon="6.04297">
        <ele>1347</ele>
        <time>2015-02-26T14:45:53Z</time>
      </trkpt>
      <trkpt lat="45.71025" lon="6.04271">
        <ele>1349</ele>
        <time>2015-02-26T14:46:15Z</time>
      </trkpt>
      <trkpt lat="45.71012" lon="6.04254">
        <ele>1353</ele>
        <time>2015-02-26T14:46:32Z</time>
      </trkpt>
      <trkpt lat="45.70994" lon="6.04246">
        <ele>1360</ele>
        <time>2015-02-26T14:46:49Z</time>
      </trkpt>
      <trkpt lat="45.70975" lon="6.04245">
        <ele>1362</ele>
        <time>2015-02-26T14:47:11Z</time>
      </trkpt>
      <trkpt lat="45.70956" lon="6.04248">
        <ele>1363</ele>
        <time>2015-02-26T14:47:33Z</time>
      </trkpt>
      <trkpt lat="45.70947" lon="6.04226">
        <ele>1364</ele>
        <time>2015-02-26T14:48:00Z</time>
      </trkpt>
      <trkpt lat="45.70944" lon="6.042">
        <ele>1365</ele>
        <time>2015-02-26T14:48:22Z</time>
      </trkpt>
      <trkpt lat="45.70936" lon="6.04175">
        <ele>1367</ele>
        <time>2015-02-26T14:48:33Z</time>
      </trkpt>
      <trkpt lat="45.70944" lon="6.04152">
        <ele>1372</ele>
        <time>2015-02-26T14:48:57Z</time>
      </trkpt>
      <trkpt lat="45.7095" lon="6.04127">
        <ele>1373</ele>
        <time>2015-02-26T14:49:41Z</time>
      </trkpt>
      <trkpt lat="45.70945" lon="6.04101">
        <ele>1374</ele>
        <time>2015-02-26T14:50:07Z</time>
      </trkpt>
      <trkpt lat="45.70944" lon="6.04074">
        <ele>1379</ele>
        <time>2015-02-26T14:50:28Z</time>
      </trkpt>
      <trkpt lat="45.7094" lon="6.04047">
        <ele>1380</ele>
        <time>2015-02-26T14:50:43Z</time>
      </trkpt>
      <trkpt lat="45.70947" lon="6.04022">
        <ele>1381</ele>
        <time>2015-02-26T14:51:04Z</time>
      </trkpt>
      <trkpt lat="45.70957" lon="6.04001">
        <ele>1381</ele>
        <time>2015-02-26T14:51:27Z</time>
      </trkpt>
      <trkpt lat="45.70959" lon="6.03974">
        <ele>1383</ele>
        <time>2015-02-26T14:51:43Z</time>
      </trkpt>
      <trkpt lat="45.70964" lon="6.03948">
        <ele>1383</ele>
        <time>2015-02-26T14:51:53Z</time>
      </trkpt>
      <trkpt lat="45.70957" lon="6.03923">
        <ele>1383</ele>
        <time>2015-02-26T14:52:04Z</time>
      </trkpt>
      <trkpt lat="45.70948" lon="6.03899">
        <ele>1385</ele>
        <time>2015-02-26T14:52:25Z</time>
      </trkpt>
      <trkpt lat="45.70933" lon="6.03882">
        <ele>1385</ele>
        <time>2015-02-26T14:52:36Z</time>
      </trkpt>
      <trkpt lat="45.70915" lon="6.03875">
        <ele>1381</ele>
        <time>2015-02-26T14:52:57Z</time>
      </trkpt>
      <trkpt lat="45.70897" lon="6.03882">
        <ele>1380</ele>
        <time>2015-02-26T14:53:27Z</time>
      </trkpt>
      <trkpt lat="45.70879" lon="6.03903">
        <ele>1379</ele>
        <time>2015-02-26T14:53:42Z</time>
      </trkpt>
      <trkpt lat="45.70854" lon="6.03922">
        <ele>1378</ele>
        <time>2015-02-26T14:53:46Z</time>
      </trkpt>
      <trkpt lat="45.70837" lon="6.03934">
        <ele>1377</ele>
        <time>2015-02-26T14:53:51Z</time>
      </trkpt>
      <trkpt lat="45.70819" lon="6.0393">
        <ele>1378</ele>
        <time>2015-02-26T14:54:07Z</time>
      </trkpt>
      <trkpt lat="45.70807" lon="6.03909">
        <ele>1378</ele>
        <time>2015-02-26T14:54:22Z</time>
      </trkpt>
      <trkpt lat="45.70798" lon="6.03886">
        <ele>1378</ele>
        <time>2015-02-26T14:54:26Z</time>
      </trkpt>
      <trkpt lat="45.7079" lon="6.03863">
        <ele>1378</ele>
        <time>2015-02-26T14:54:33Z</time>
      </trkpt>
      <trkpt lat="45.7078" lon="6.03841">
        <ele>1378</ele>
        <time>2015-02-26T14:54:51Z</time>
      </trkpt>
      <trkpt lat="45.70763" lon="6.0383">
        <ele>1377</ele>
        <time>2015-02-26T14:55:18Z</time>
      </trkpt>
      <trkpt lat="45.70748" lon="6.03815">
        <ele>1377</ele>
        <time>2015-02-26T14:55:46Z</time>
      </trkpt>
      <trkpt lat="45.70732" lon="6.03801">
        <ele>1378</ele>
        <time>2015-02-26T14:56:03Z</time>
      </trkpt>
      <trkpt lat="45.70717" lon="6.03786">
        <ele>1378</ele>
        <time>2015-02-26T14:56:19Z</time>
      </trkpt>
      <trkpt lat="45.70699" lon="6.03787">
        <ele>1378</ele>
        <time>2015-02-26T14:56:43Z</time>
      </trkpt>
      <trkpt lat="45.7068" lon="6.03786">
        <ele>1378</ele>
        <time>2015-02-26T14:57:02Z</time>
      </trkpt>
      <trkpt lat="45.70662" lon="6.03794">
        <ele>1376</ele>
        <time>2015-02-26T14:57:17Z</time>
      </trkpt>
      <trkpt lat="45.70646" lon="6.03807">
        <ele>1376</ele>
        <time>2015-02-26T14:57:23Z</time>
      </trkpt>
      <trkpt lat="45.7063" lon="6.03821">
        <ele>1375</ele>
        <time>2015-02-26T14:57:29Z</time>
      </trkpt>
      <trkpt lat="45.70615" lon="6.03839">
        <ele>1375</ele>
        <time>2015-02-26T14:57:32Z</time>
      </trkpt>
      <trkpt lat="45.70599" lon="6.03857">
        <ele>1374</ele>
        <time>2015-02-26T14:57:36Z</time>
      </trkpt>
      <trkpt lat="45.70583" lon="6.03875">
        <ele>1367</ele>
        <time>2015-02-26T14:57:40Z</time>
      </trkpt>
      <trkpt lat="45.70565" lon="6.03894">
        <ele>1367</ele>
        <time>2015-02-26T14:57:44Z</time>
      </trkpt>
      <trkpt lat="45.70545" lon="6.03901">
        <ele>1365</ele>
        <time>2015-02-26T14:57:50Z</time>
      </trkpt>
      <trkpt lat="45.70528" lon="6.03886">
        <ele>1364</ele>
        <time>2015-02-26T14:57:57Z</time>
      </trkpt>
      <trkpt lat="45.70516" lon="6.03866">
        <ele>1363</ele>
        <time>2015-02-26T14:58:10Z</time>
      </trkpt>
      <trkpt lat="45.70503" lon="6.03847">
        <ele>1361</ele>
        <time>2015-02-26T14:58:22Z</time>
      </trkpt>
      <trkpt lat="45.70492" lon="6.03826">
        <ele>1359</ele>
        <time>2015-02-26T14:58:38Z</time>
      </trkpt>
      <trkpt lat="45.70488" lon="6.038">
        <ele>1360</ele>
        <time>2015-02-26T14:58:57Z</time>
      </trkpt>
      <trkpt lat="45.70481" lon="6.03776">
        <ele>1360</ele>
        <time>2015-02-26T14:59:08Z</time>
      </trkpt>
      <trkpt lat="45.70448" lon="6.03733">
        <ele>1361</ele>
        <time>2015-02-26T14:59:40Z</time>
      </trkpt>
      <trkpt lat="45.70435" lon="6.03712">
        <ele>1362</ele>
        <time>2015-02-26T15:03:28Z</time>
      </trkpt>
      <trkpt lat="45.70422" lon="6.03694">
        <ele>1362</ele>
        <time>2015-02-26T15:03:43Z</time>
      </trkpt>
      <trkpt lat="45.70412" lon="6.03673">
        <ele>1363</ele>
        <time>2015-02-26T15:04:02Z</time>
      </trkpt>
      <trkpt lat="45.70404" lon="6.03647">
        <ele>1363</ele>
        <time>2015-02-26T15:04:25Z</time>
      </trkpt>
      <trkpt lat="45.70392" lon="6.03626">
        <ele>1364</ele>
        <time>2015-02-26T15:07:52Z</time>
      </trkpt>
      <trkpt lat="45.70382" lon="6.03603">
        <ele>1363</ele>
        <time>2015-02-26T15:08:02Z</time>
      </trkpt>
      <trkpt lat="45.70371" lon="6.0358">
        <ele>1360</ele>
        <time>2015-02-26T15:08:08Z</time>
      </trkpt>
      <trkpt lat="45.70354" lon="6.03565">
        <ele>1360</ele>
        <time>2015-02-26T15:08:12Z</time>
      </trkpt>
      <trkpt lat="45.70338" lon="6.03552">
        <ele>1359</ele>
        <time>2015-02-26T15:08:16Z</time>
      </trkpt>
      <trkpt lat="45.70322" lon="6.03537">
        <ele>1353</ele>
        <time>2015-02-26T15:08:22Z</time>
      </trkpt>
      <trkpt lat="45.70217" lon="6.0354">
        <ele>1346</ele>
        <time>2015-02-26T15:08:52Z</time>
      </trkpt>
      <trkpt lat="45.70198" lon="6.03538">
        <ele>1345</ele>
        <time>2015-02-26T15:09:02Z</time>
      </trkpt>
      <trkpt lat="45.7018" lon="6.0353">
        <ele>1344</ele>
        <time>2015-02-26T15:09:26Z</time>
      </trkpt>
      <trkpt lat="45.70162" lon="6.03534">
        <ele>1342</ele>
        <time>2015-02-26T15:09:49Z</time>
      </trkpt>
      <trkpt lat="45.70149" lon="6.03551">
        <ele>1343</ele>
        <time>2015-02-26T15:11:01Z</time>
      </trkpt>
      <trkpt lat="45.70088" lon="6.03615">
        <ele>1347</ele>
        <time>2015-02-26T15:11:40Z</time>
      </trkpt>
      <trkpt lat="45.70059" lon="6.03633">
        <ele>1346</ele>
        <time>2015-02-26T15:12:22Z</time>
      </trkpt>
      <trkpt lat="45.70042" lon="6.03642">
        <ele>1346</ele>
        <time>2015-02-26T15:12:37Z</time>
      </trkpt>
      <trkpt lat="45.70026" lon="6.03655">
        <ele>1346</ele>
        <time>2015-02-26T15:12:54Z</time>
      </trkpt>
      <trkpt lat="45.70015" lon="6.03676">
        <ele>1347</ele>
        <time>2015-02-26T15:13:10Z</time>
      </trkpt>
      <trkpt lat="45.7001" lon="6.03701">
        <ele>1348</ele>
        <time>2015-02-26T15:13:35Z</time>
      </trkpt>
      <trkpt lat="45.70006" lon="6.03726">
        <ele>1348</ele>
        <time>2015-02-26T15:13:55Z</time>
      </trkpt>
      <trkpt lat="45.70004" lon="6.03752">
        <ele>1347</ele>
        <time>2015-02-26T15:14:19Z</time>
      </trkpt>
      <trkpt lat="45.7" lon="6.03778">
        <ele>1347</ele>
        <time>2015-02-26T15:15:30Z</time>
      </trkpt>
      <trkpt lat="45.69999" lon="6.03809">
        <ele>1346</ele>
        <time>2015-02-26T15:15:37Z</time>
      </trkpt>
      <trkpt lat="45.69993" lon="6.03836">
        <ele>1345</ele>
        <time>2015-02-26T15:15:42Z</time>
      </trkpt>
      <trkpt lat="45.69986" lon="6.0386">
        <ele>1346</ele>
        <time>2015-02-26T15:15:58Z</time>
      </trkpt>
      <trkpt lat="45.69981" lon="6.03886">
        <ele>1344</ele>
        <time>2015-02-26T15:16:08Z</time>
      </trkpt>
      <trkpt lat="45.69975" lon="6.03914">
        <ele>1343</ele>
        <time>2015-02-26T15:16:10Z</time>
      </trkpt>
      <trkpt lat="45.69969" lon="6.03939">
        <ele>1341</ele>
        <time>2015-02-26T15:16:14Z</time>
      </trkpt>
      <trkpt lat="45.69965" lon="6.03965">
        <ele>1340</ele>
        <time>2015-02-26T15:16:23Z</time>
      </trkpt>
      <trkpt lat="45.6996" lon="6.03991">
        <ele>1340</ele>
        <time>2015-02-26T15:16:30Z</time>
      </trkpt>
      <trkpt lat="45.69948" lon="6.04016">
        <ele>1336</ele>
        <time>2015-02-26T15:16:38Z</time>
      </trkpt>
      <trkpt lat="45.69956" lon="6.04041">
        <ele>1334</ele>
        <time>2015-02-26T15:17:28Z</time>
      </trkpt>
      <trkpt lat="45.69944" lon="6.04059">
        <ele>1334</ele>
        <time>2015-02-26T15:18:24Z</time>
      </trkpt>
      <trkpt lat="45.6994" lon="6.04088">
        <ele>1328</ele>
        <time>2015-02-26T15:19:03Z</time>
      </trkpt>
      <trkpt lat="45.69938" lon="6.0412">
        <ele>1325</ele>
        <time>2015-02-26T15:19:06Z</time>
      </trkpt>
      <trkpt lat="45.69935" lon="6.04146">
        <ele>1322</ele>
        <time>2015-02-26T15:19:10Z</time>
      </trkpt>
      <trkpt lat="45.69934" lon="6.04172">
        <ele>1317</ele>
        <time>2015-02-26T15:19:15Z</time>
      </trkpt>
      <trkpt lat="45.69932" lon="6.04198">
        <ele>1318</ele>
        <time>2015-02-26T15:19:22Z</time>
      </trkpt>
      <trkpt lat="45.69926" lon="6.04224">
        <ele>1316</ele>
        <time>2015-02-26T15:19:29Z</time>
      </trkpt>
      <trkpt lat="45.6992" lon="6.04249">
        <ele>1311</ele>
        <time>2015-02-26T15:19:35Z</time>
      </trkpt>
      <trkpt lat="45.69912" lon="6.04274">
        <ele>1308</ele>
        <time>2015-02-26T15:19:42Z</time>
      </trkpt>
      <trkpt lat="45.69903" lon="6.04297">
        <ele>1308</ele>
        <time>2015-02-26T15:19:50Z</time>
      </trkpt>
      <trkpt lat="45.69887" lon="6.0431">
        <ele>1308</ele>
        <time>2015-02-26T15:19:59Z</time>
      </trkpt>
      <trkpt lat="45.69869" lon="6.04313">
        <ele>1308</ele>
        <time>2015-02-26T15:21:44Z</time>
      </trkpt>
      <trkpt lat="45.69851" lon="6.04308">
        <ele>1308</ele>
        <time>2015-02-26T15:22:00Z</time>
      </trkpt>
      <trkpt lat="45.69831" lon="6.04302">
        <ele>1308</ele>
        <time>2015-02-26T15:22:07Z</time>
      </trkpt>
      <trkpt lat="45.69813" lon="6.0429">
        <ele>1308</ele>
        <time>2015-02-26T15:22:12Z</time>
      </trkpt>
      <trkpt lat="45.69795" lon="6.0428">
        <ele>1308</ele>
        <time>2015-02-26T15:22:17Z</time>
      </trkpt>
      <trkpt lat="45.69776" lon="6.0427">
        <ele>1308</ele>
        <time>2015-02-26T15:22:23Z</time>
      </trkpt>
      <trkpt lat="45.69759" lon="6.0426">
        <ele>1308</ele>
        <time>2015-02-26T15:22:28Z</time>
      </trkpt>
      <trkpt lat="45.69741" lon="6.04248">
        <ele>1307</ele>
        <time>2015-02-26T15:22:33Z</time>
      </trkpt>
      <trkpt lat="45.69724" lon="6.0423">
        <ele>1306</ele>
        <time>2015-02-26T15:22:40Z</time>
      </trkpt>
      <trkpt lat="45.6971" lon="6.04211">
        <ele>1306</ele>
        <time>2015-02-26T15:22:46Z</time>
      </trkpt>
      <trkpt lat="45.69695" lon="6.04192">
        <ele>1306</ele>
        <time>2015-02-26T15:22:53Z</time>
      </trkpt>
      <trkpt lat="45.69679" lon="6.04177">
        <ele>1305</ele>
        <time>2015-02-26T15:22:58Z</time>
      </trkpt>
      <trkpt lat="45.6966" lon="6.0417">
        <ele>1304</ele>
        <time>2015-02-26T15:23:04Z</time>
      </trkpt>
      <trkpt lat="45.69642" lon="6.04169">
        <ele>1304</ele>
        <time>2015-02-26T15:23:13Z</time>
      </trkpt>
      <trkpt lat="45.69628" lon="6.04152">
        <ele>1308</ele>
        <time>2015-02-26T15:23:26Z</time>
      </trkpt>
      <trkpt lat="45.69614" lon="6.04134">
        <ele>1309</ele>
        <time>2015-02-26T15:23:38Z</time>
      </trkpt>
      <trkpt lat="45.69596" lon="6.04128">
        <ele>1309</ele>
        <time>2015-02-26T15:23:55Z</time>
      </trkpt>
      <trkpt lat="45.69576" lon="6.04129">
        <ele>1310</ele>
        <time>2015-02-26T15:24:11Z</time>
      </trkpt>
      <trkpt lat="45.6956" lon="6.04142">
        <ele>1310</ele>
        <time>2015-02-26T15:24:29Z</time>
      </trkpt>
      <trkpt lat="45.69544" lon="6.04154">
        <ele>1309</ele>
        <time>2015-02-26T15:24:50Z</time>
      </trkpt>
      <trkpt lat="45.69535" lon="6.04177">
        <ele>1305</ele>
        <time>2015-02-26T15:25:05Z</time>
      </trkpt>
      <trkpt lat="45.69519" lon="6.04193">
        <ele>1305</ele>
        <time>2015-02-26T15:25:18Z</time>
      </trkpt>
      <trkpt lat="45.69502" lon="6.04181">
        <ele>1306</ele>
        <time>2015-02-26T15:25:44Z</time>
      </trkpt>
      <trkpt lat="45.69498" lon="6.04154">
        <ele>1309</ele>
        <time>2015-02-26T15:26:01Z</time>
      </trkpt>
      <trkpt lat="45.69492" lon="6.04129">
        <ele>1312</ele>
        <time>2015-02-26T15:26:10Z</time>
      </trkpt>
      <trkpt lat="45.69484" lon="6.04103">
        <ele>1313</ele>
        <time>2015-02-26T15:26:23Z</time>
      </trkpt>
      <trkpt lat="45.69474" lon="6.04081">
        <ele>1316</ele>
        <time>2015-02-26T15:26:35Z</time>
      </trkpt>
      <trkpt lat="45.69456" lon="6.04075">
        <ele>1316</ele>
        <time>2015-02-26T15:26:44Z</time>
      </trkpt>
      <trkpt lat="45.69438" lon="6.0408">
        <ele>1315</ele>
        <time>2015-02-26T15:26:57Z</time>
      </trkpt>
      <trkpt lat="45.69419" lon="6.04086">
        <ele>1314</ele>
        <time>2015-02-26T15:27:13Z</time>
      </trkpt>
      <trkpt lat="45.69401" lon="6.04091">
        <ele>1316</ele>
        <time>2015-02-26T15:27:31Z</time>
      </trkpt>
      <trkpt lat="45.69383" lon="6.04096">
        <ele>1317</ele>
        <time>2015-02-26T15:27:53Z</time>
      </trkpt>
      <trkpt lat="45.69365" lon="6.04098">
        <ele>1319</ele>
        <time>2015-02-26T15:28:10Z</time>
      </trkpt>
      <trkpt lat="45.69345" lon="6.04098">
        <ele>1320</ele>
        <time>2015-02-26T15:28:18Z</time>
      </trkpt>
      <trkpt lat="45.69326" lon="6.04092">
        <ele>1323</ele>
        <time>2015-02-26T15:28:26Z</time>
      </trkpt>
      <trkpt lat="45.69315" lon="6.04071">
        <ele>1323</ele>
        <time>2015-02-26T15:28:36Z</time>
      </trkpt>
      <trkpt lat="45.69303" lon="6.0405">
        <ele>1324</ele>
        <time>2015-02-26T15:28:52Z</time>
      </trkpt>
      <trkpt lat="45.69288" lon="6.04033">
        <ele>1324</ele>
        <time>2015-02-26T15:29:05Z</time>
      </trkpt>
      <trkpt lat="45.6928" lon="6.0401">
        <ele>1324</ele>
        <time>2015-02-26T15:29:22Z</time>
      </trkpt>
      <trkpt lat="45.69271" lon="6.03987">
        <ele>1327</ele>
        <time>2015-02-26T15:29:43Z</time>
      </trkpt>
      <trkpt lat="45.69258" lon="6.03966">
        <ele>1328</ele>
        <time>2015-02-26T15:29:57Z</time>
      </trkpt>
      <trkpt lat="45.69241" lon="6.03951">
        <ele>1331</ele>
        <time>2015-02-26T15:30:10Z</time>
      </trkpt>
      <trkpt lat="45.69225" lon="6.03937">
        <ele>1331</ele>
        <time>2015-02-26T15:30:17Z</time>
      </trkpt>
      <trkpt lat="45.69207" lon="6.03926">
        <ele>1331</ele>
        <time>2015-02-26T15:30:27Z</time>
      </trkpt>
      <trkpt lat="45.69189" lon="6.03917">
        <ele>1331</ele>
        <time>2015-02-26T15:30:37Z</time>
      </trkpt>
      <trkpt lat="45.69171" lon="6.03906">
        <ele>1333</ele>
        <time>2015-02-26T15:30:50Z</time>
      </trkpt>
      <trkpt lat="45.69152" lon="6.03892">
        <ele>1332</ele>
        <time>2015-02-26T15:30:59Z</time>
      </trkpt>
      <trkpt lat="45.69137" lon="6.03876">
        <ele>1332</ele>
        <time>2015-02-26T15:31:07Z</time>
      </trkpt>
      <trkpt lat="45.69119" lon="6.03862">
        <ele>1332</ele>
        <time>2015-02-26T15:31:15Z</time>
      </trkpt>
      <trkpt lat="45.691" lon="6.03857">
        <ele>1331</ele>
        <time>2015-02-26T15:31:22Z</time>
      </trkpt>
      <trkpt lat="45.69079" lon="6.03853">
        <ele>1330</ele>
        <time>2015-02-26T15:31:31Z</time>
      </trkpt>
      <trkpt lat="45.69061" lon="6.03847">
        <ele>1330</ele>
        <time>2015-02-26T15:31:39Z</time>
      </trkpt>
      <trkpt lat="45.69046" lon="6.0383">
        <ele>1334</ele>
        <time>2015-02-26T15:31:50Z</time>
      </trkpt>
      <trkpt lat="45.69044" lon="6.03804">
        <ele>1335</ele>
        <time>2015-02-26T15:32:05Z</time>
      </trkpt>
      <trkpt lat="45.69046" lon="6.03778">
        <ele>1336</ele>
        <time>2015-02-26T15:32:19Z</time>
      </trkpt>
      <trkpt lat="45.6903" lon="6.03758">
        <ele>1336</ele>
        <time>2015-02-26T15:32:29Z</time>
      </trkpt>
      <trkpt lat="45.69023" lon="6.03733">
        <ele>1339</ele>
        <time>2015-02-26T15:32:39Z</time>
      </trkpt>
      <trkpt lat="45.69024" lon="6.03707">
        <ele>1340</ele>
        <time>2015-02-26T15:32:56Z</time>
      </trkpt>
      <trkpt lat="45.69013" lon="6.03685">
        <ele>1339</ele>
        <time>2015-02-26T15:33:09Z</time>
      </trkpt>
      <trkpt lat="45.69" lon="6.03668">
        <ele>1335</ele>
        <time>2015-02-26T15:33:16Z</time>
      </trkpt>
      <trkpt lat="45.68985" lon="6.03651">
        <ele>1335</ele>
        <time>2015-02-26T15:33:24Z</time>
      </trkpt>
      <trkpt lat="45.68967" lon="6.03646">
        <ele>1335</ele>
        <time>2015-02-26T15:33:33Z</time>
      </trkpt>
      <trkpt lat="45.68949" lon="6.03651">
        <ele>1334</ele>
        <time>2015-02-26T15:35:07Z</time>
      </trkpt>
      <trkpt lat="45.68931" lon="6.03649">
        <ele>1333</ele>
        <time>2015-02-26T15:35:20Z</time>
      </trkpt>
      <trkpt lat="45.6891" lon="6.03658">
        <ele>1330</ele>
        <time>2015-02-26T15:35:26Z</time>
      </trkpt>
      <trkpt lat="45.68892" lon="6.03661">
        <ele>1330</ele>
        <time>2015-02-26T15:35:30Z</time>
      </trkpt>
      <trkpt lat="45.68873" lon="6.03661">
        <ele>1330</ele>
        <time>2015-02-26T15:35:33Z</time>
      </trkpt>
      <trkpt lat="45.68856" lon="6.03653">
        <ele>1330</ele>
        <time>2015-02-26T15:35:39Z</time>
      </trkpt>
      <trkpt lat="45.68842" lon="6.03631">
        <ele>1329</ele>
        <time>2015-02-26T15:35:46Z</time>
      </trkpt>
      <trkpt lat="45.68835" lon="6.03604">
        <ele>1329</ele>
        <time>2015-02-26T15:35:52Z</time>
      </trkpt>
      <trkpt lat="45.68837" lon="6.03576">
        <ele>1328</ele>
        <time>2015-02-26T15:36:00Z</time>
      </trkpt>
      <trkpt lat="45.68834" lon="6.03548">
        <ele>1328</ele>
        <time>2015-02-26T15:36:14Z</time>
      </trkpt>
      <trkpt lat="45.68829" lon="6.03521">
        <ele>1332</ele>
        <time>2015-02-26T15:36:23Z</time>
      </trkpt>
      <trkpt lat="45.68834" lon="6.03494">
        <ele>1329</ele>
        <time>2015-02-26T15:36:29Z</time>
      </trkpt>
      <trkpt lat="45.68834" lon="6.03466">
        <ele>1327</ele>
        <time>2015-02-26T15:36:37Z</time>
      </trkpt>
      <trkpt lat="45.68822" lon="6.03444">
        <ele>1329</ele>
        <time>2015-02-26T15:36:52Z</time>
      </trkpt>
      <trkpt lat="45.6881" lon="6.03425">
        <ele>1329</ele>
        <time>2015-02-26T15:37:00Z</time>
      </trkpt>
      <trkpt lat="45.68796" lon="6.03408">
        <ele>1327</ele>
        <time>2015-02-26T15:37:09Z</time>
      </trkpt>
      <trkpt lat="45.68796" lon="6.03381">
        <ele>1326</ele>
        <time>2015-02-26T15:37:28Z</time>
      </trkpt>
      <trkpt lat="45.68802" lon="6.03355">
        <ele>1324</ele>
        <time>2015-02-26T15:37:44Z</time>
      </trkpt>
      <trkpt lat="45.6881" lon="6.0333">
        <ele>1321</ele>
        <time>2015-02-26T15:46:11Z</time>
      </trkpt>
      <trkpt lat="45.68822" lon="6.03309">
        <ele>1321</ele>
        <time>2015-02-26T15:46:17Z</time>
      </trkpt>
      <trkpt lat="45.68834" lon="6.03288">
        <ele>1324</ele>
        <time>2015-02-26T15:46:30Z</time>
      </trkpt>
      <trkpt lat="45.68843" lon="6.03264">
        <ele>1323</ele>
        <time>2015-02-26T15:46:51Z</time>
      </trkpt>
      <trkpt lat="45.68846" lon="6.03238">
        <ele>1324</ele>
        <time>2015-02-26T15:47:14Z</time>
      </trkpt>
      <trkpt lat="45.6884" lon="6.03212">
        <ele>1326</ele>
        <time>2015-02-26T15:47:26Z</time>
      </trkpt>
      <trkpt lat="45.68828" lon="6.03189">
        <ele>1322</ele>
        <time>2015-02-26T15:47:37Z</time>
      </trkpt>
      <trkpt lat="45.68817" lon="6.03168">
        <ele>1322</ele>
        <time>2015-02-26T15:48:33Z</time>
      </trkpt>
      <trkpt lat="45.68804" lon="6.03141">
        <ele>1319</ele>
        <time>2015-02-26T15:48:50Z</time>
      </trkpt>
      <trkpt lat="45.68792" lon="6.03116">
        <ele>1318</ele>
        <time>2015-02-26T15:48:53Z</time>
      </trkpt>
      <trkpt lat="45.68772" lon="6.03106">
        <ele>1318</ele>
        <time>2015-02-26T15:48:57Z</time>
      </trkpt>
      <trkpt lat="45.68753" lon="6.03109">
        <ele>1317</ele>
        <time>2015-02-26T15:49:03Z</time>
      </trkpt>
      <trkpt lat="45.68734" lon="6.03113">
        <ele>1319</ele>
        <time>2015-02-26T15:49:10Z</time>
      </trkpt>
      <trkpt lat="45.68716" lon="6.03117">
        <ele>1320</ele>
        <time>2015-02-26T15:49:18Z</time>
      </trkpt>
      <trkpt lat="45.68696" lon="6.03117">
        <ele>1320</ele>
        <time>2015-02-26T15:49:26Z</time>
      </trkpt>
      <trkpt lat="45.68677" lon="6.03112">
        <ele>1320</ele>
        <time>2015-02-26T15:49:34Z</time>
      </trkpt>
      <trkpt lat="45.68658" lon="6.03104">
        <ele>1322</ele>
        <time>2015-02-26T15:49:42Z</time>
      </trkpt>
      <trkpt lat="45.68639" lon="6.03097">
        <ele>1323</ele>
        <time>2015-02-26T15:49:50Z</time>
      </trkpt>
      <trkpt lat="45.68623" lon="6.03085">
        <ele>1324</ele>
        <time>2015-02-26T15:49:58Z</time>
      </trkpt>
      <trkpt lat="45.6861" lon="6.03066">
        <ele>1320</ele>
        <time>2015-02-26T15:50:10Z</time>
      </trkpt>
      <trkpt lat="45.68601" lon="6.03041">
        <ele>1320</ele>
        <time>2015-02-26T15:50:22Z</time>
      </trkpt>
      <trkpt lat="45.68592" lon="6.03017">
        <ele>1320</ele>
        <time>2015-02-26T15:50:33Z</time>
      </trkpt>
      <trkpt lat="45.68581" lon="6.02993">
        <ele>1322</ele>
        <time>2015-02-26T15:50:44Z</time>
      </trkpt>
      <trkpt lat="45.68577" lon="6.02968">
        <ele>1326</ele>
        <time>2015-02-26T15:50:57Z</time>
      </trkpt>
      <trkpt lat="45.68574" lon="6.0294">
        <ele>1325</ele>
        <time>2015-02-26T15:51:10Z</time>
      </trkpt>
      <trkpt lat="45.68571" lon="6.02914">
        <ele>1324</ele>
        <time>2015-02-26T15:51:25Z</time>
      </trkpt>
      <trkpt lat="45.68566" lon="6.02887">
        <ele>1327</ele>
        <time>2015-02-26T15:51:39Z</time>
      </trkpt>
      <trkpt lat="45.68573" lon="6.02862">
        <ele>1327</ele>
        <time>2015-02-26T15:51:55Z</time>
      </trkpt>
      <trkpt lat="45.68574" lon="6.02836">
        <ele>1324</ele>
        <time>2015-02-26T15:54:24Z</time>
      </trkpt>
      <trkpt lat="45.68579" lon="6.0281">
        <ele>1329</ele>
        <time>2015-02-26T15:54:45Z</time>
      </trkpt>
      <trkpt lat="45.6858" lon="6.02784">
        <ele>1331</ele>
        <time>2015-02-26T15:55:00Z</time>
      </trkpt>
      <trkpt lat="45.68574" lon="6.02758">
        <ele>1331</ele>
        <time>2015-02-26T15:55:16Z</time>
      </trkpt>
      <trkpt lat="45.68586" lon="6.02739">
        <ele>1329</ele>
        <time>2015-02-26T15:55:33Z</time>
      </trkpt>
      <trkpt lat="45.68592" lon="6.02713">
        <ele>1330</ele>
        <time>2015-02-26T15:55:47Z</time>
      </trkpt>
      <trkpt lat="45.68594" lon="6.02688">
        <ele>1331</ele>
        <time>2015-02-26T15:56:03Z</time>
      </trkpt>
      <trkpt lat="45.68599" lon="6.02662">
        <ele>1333</ele>
        <time>2015-02-26T15:56:23Z</time>
      </trkpt>
      <trkpt lat="45.68601" lon="6.02636">
        <ele>1334</ele>
        <time>2015-02-26T15:56:42Z</time>
      </trkpt>
      <trkpt lat="45.68603" lon="6.02608">
        <ele>1334</ele>
        <time>2015-02-26T15:57:03Z</time>
      </trkpt>
      <trkpt lat="45.68594" lon="6.02584">
        <ele>1335</ele>
        <time>2015-02-26T15:57:18Z</time>
      </trkpt>
      <trkpt lat="45.68585" lon="6.0256">
        <ele>1336</ele>
        <time>2015-02-26T15:57:30Z</time>
      </trkpt>
      <trkpt lat="45.68576" lon="6.02536">
        <ele>1341</ele>
        <time>2015-02-26T15:57:39Z</time>
      </trkpt>
      <trkpt lat="45.68566" lon="6.02512">
        <ele>1341</ele>
        <time>2015-02-26T15:57:49Z</time>
      </trkpt>
      <trkpt lat="45.68559" lon="6.02488">
        <ele>1340</ele>
        <time>2015-02-26T15:58:03Z</time>
      </trkpt>
      <trkpt lat="45.68546" lon="6.02468">
        <ele>1341</ele>
        <time>2015-02-26T15:58:53Z</time>
      </trkpt>
      <trkpt lat="45.68529" lon="6.02456">
        <ele>1341</ele>
        <time>2015-02-26T15:59:03Z</time>
      </trkpt>
      <trkpt lat="45.68514" lon="6.02442">
        <ele>1341</ele>
        <time>2015-02-26T15:59:11Z</time>
      </trkpt>
      <trkpt lat="45.68497" lon="6.02427">
        <ele>1342</ele>
        <time>2015-02-26T15:59:23Z</time>
      </trkpt>
      <trkpt lat="45.6848" lon="6.02415">
        <ele>1338</ele>
        <time>2015-02-26T15:59:36Z</time>
      </trkpt>
      <trkpt lat="45.68464" lon="6.02399">
        <ele>1338</ele>
        <time>2015-02-26T15:59:45Z</time>
      </trkpt>
      <trkpt lat="45.68444" lon="6.02385">
        <ele>1338</ele>
        <time>2015-02-26T15:59:51Z</time>
      </trkpt>
      <trkpt lat="45.68426" lon="6.02368">
        <ele>1337</ele>
        <time>2015-02-26T15:59:55Z</time>
      </trkpt>
      <trkpt lat="45.68408" lon="6.0235">
        <ele>1340</ele>
        <time>2015-02-26T16:00:00Z</time>
      </trkpt>
      <trkpt lat="45.68392" lon="6.02331">
        <ele>1334</ele>
        <time>2015-02-26T16:00:04Z</time>
      </trkpt>
      <trkpt lat="45.68375" lon="6.02314">
        <ele>1334</ele>
        <time>2015-02-26T16:00:08Z</time>
      </trkpt>
      <trkpt lat="45.68361" lon="6.02297">
        <ele>1334</ele>
        <time>2015-02-26T16:00:12Z</time>
      </trkpt>
      <trkpt lat="45.68346" lon="6.02278">
        <ele>1333</ele>
        <time>2015-02-26T16:00:16Z</time>
      </trkpt>
      <trkpt lat="45.68327" lon="6.02262">
        <ele>1338</ele>
        <time>2015-02-26T16:00:21Z</time>
      </trkpt>
      <trkpt lat="45.6831" lon="6.02253">
        <ele>1342</ele>
        <time>2015-02-26T16:00:28Z</time>
      </trkpt>
      <trkpt lat="45.68292" lon="6.0226">
        <ele>1346</ele>
        <time>2015-02-26T16:00:51Z</time>
      </trkpt>
      <trkpt lat="45.68275" lon="6.02249">
        <ele>1342</ele>
        <time>2015-02-26T16:01:12Z</time>
      </trkpt>
      <trkpt lat="45.68275" lon="6.02223">
        <ele>1340</ele>
        <time>2015-02-26T16:01:41Z</time>
      </trkpt>
      <trkpt lat="45.6828" lon="6.02197">
        <ele>1338</ele>
        <time>2015-02-26T16:02:05Z</time>
      </trkpt>
      <trkpt lat="45.68275" lon="6.02172">
        <ele>1339</ele>
        <time>2015-02-26T16:02:22Z</time>
      </trkpt>
      <trkpt lat="45.68275" lon="6.02145">
        <ele>1336</ele>
        <time>2015-02-26T16:02:51Z</time>
      </trkpt>
      <trkpt lat="45.68269" lon="6.0212">
        <ele>1337</ele>
        <time>2015-02-26T16:03:14Z</time>
      </trkpt>
      <trkpt lat="45.68262" lon="6.02096">
        <ele>1339</ele>
        <time>2015-02-26T16:03:40Z</time>
      </trkpt>
      <trkpt lat="45.68255" lon="6.02071">
        <ele>1341</ele>
        <time>2015-02-26T16:03:52Z</time>
      </trkpt>
      <trkpt lat="45.68248" lon="6.02046">
        <ele>1346</ele>
        <time>2015-02-26T16:04:03Z</time>
      </trkpt>
      <trkpt lat="45.68247" lon="6.0202">
        <ele>1346</ele>
        <time>2015-02-26T16:04:10Z</time>
      </trkpt>
      <trkpt lat="45.68251" lon="6.01994">
        <ele>1343</ele>
        <time>2015-02-26T16:04:19Z</time>
      </trkpt>
      <trkpt lat="45.68256" lon="6.01967">
        <ele>1337</ele>
        <time>2015-02-26T16:04:27Z</time>
      </trkpt>
      <trkpt lat="45.68259" lon="6.01941">
        <ele>1337</ele>
        <time>2015-02-26T16:04:36Z</time>
      </trkpt>
      <trkpt lat="45.68263" lon="6.01915">
        <ele>1339</ele>
        <time>2015-02-26T16:04:48Z</time>
      </trkpt>
      <trkpt lat="45.68259" lon="6.0189">
        <ele>1337</ele>
        <time>2015-02-26T16:05:07Z</time>
      </trkpt>
      <trkpt lat="45.68247" lon="6.01869">
        <ele>1343</ele>
        <time>2015-02-26T16:05:20Z</time>
      </trkpt>
      <trkpt lat="45.68241" lon="6.01843">
        <ele>1342</ele>
        <time>2015-02-26T16:05:32Z</time>
      </trkpt>
      <trkpt lat="45.68243" lon="6.01812">
        <ele>1341</ele>
        <time>2015-02-26T16:05:35Z</time>
      </trkpt>
      <trkpt lat="45.68244" lon="6.01781">
        <ele>1341</ele>
        <time>2015-02-26T16:05:39Z</time>
      </trkpt>
      <trkpt lat="45.68241" lon="6.01755">
        <ele>1340</ele>
        <time>2015-02-26T16:05:44Z</time>
      </trkpt>
      <trkpt lat="45.68237" lon="6.01729">
        <ele>1339</ele>
        <time>2015-02-26T16:05:50Z</time>
      </trkpt>
      <trkpt lat="45.68232" lon="6.01703">
        <ele>1338</ele>
        <time>2015-02-26T16:05:59Z</time>
      </trkpt>
      <trkpt lat="45.6822" lon="6.01677">
        <ele>1338</ele>
        <time>2015-02-26T16:06:05Z</time>
      </trkpt>
      <trkpt lat="45.68205" lon="6.01654">
        <ele>1337</ele>
        <time>2015-02-26T16:06:09Z</time>
      </trkpt>
      <trkpt lat="45.68187" lon="6.01642">
        <ele>1337</ele>
        <time>2015-02-26T16:06:13Z</time>
      </trkpt>
      <trkpt lat="45.68166" lon="6.0164">
        <ele>1343</ele>
        <time>2015-02-26T16:06:19Z</time>
      </trkpt>
      <trkpt lat="45.68148" lon="6.01638">
        <ele>1345</ele>
        <time>2015-02-26T16:06:33Z</time>
      </trkpt>
      <trkpt lat="45.68128" lon="6.01641">
        <ele>1347</ele>
        <time>2015-02-26T16:06:50Z</time>
      </trkpt>
      <trkpt lat="45.68114" lon="6.01662">
        <ele>1348</ele>
        <time>2015-02-26T16:06:59Z</time>
      </trkpt>
      <trkpt lat="45.68106" lon="6.01687">
        <ele>1347</ele>
        <time>2015-02-26T16:07:07Z</time>
      </trkpt>
      <trkpt lat="45.68097" lon="6.01712">
        <ele>1347</ele>
        <time>2015-02-26T16:07:21Z</time>
      </trkpt>
      <trkpt lat="45.68087" lon="6.01735">
        <ele>1347</ele>
        <time>2015-02-26T16:07:32Z</time>
      </trkpt>
      <trkpt lat="45.68076" lon="6.01757">
        <ele>1351</ele>
        <time>2015-02-26T16:07:46Z</time>
      </trkpt>
      <trkpt lat="45.68061" lon="6.01742">
        <ele>1355</ele>
        <time>2015-02-26T16:08:23Z</time>
      </trkpt>
      <trkpt lat="45.68067" lon="6.01717">
        <ele>1357</ele>
        <time>2015-02-26T16:08:50Z</time>
      </trkpt>
      <trkpt lat="45.68073" lon="6.01693">
        <ele>1357</ele>
        <time>2015-02-26T16:09:12Z</time>
      </trkpt>
      <trkpt lat="45.68077" lon="6.01667">
        <ele>1355</ele>
        <time>2015-02-26T16:09:31Z</time>
      </trkpt>
      <trkpt lat="45.68075" lon="6.01641">
        <ele>1361</ele>
        <time>2015-02-26T16:09:50Z</time>
      </trkpt>
      <trkpt lat="45.68061" lon="6.01659">
        <ele>1361</ele>
        <time>2015-02-26T16:12:48Z</time>
      </trkpt>
      <trkpt lat="45.68053" lon="6.01683">
        <ele>1359</ele>
        <time>2015-02-26T16:12:57Z</time>
      </trkpt>
      <trkpt lat="45.68046" lon="6.01708">
        <ele>1360</ele>
        <time>2015-02-26T16:13:05Z</time>
      </trkpt>
      <trkpt lat="45.68041" lon="6.01735">
        <ele>1359</ele>
        <time>2015-02-26T16:13:12Z</time>
      </trkpt>
      <trkpt lat="45.68038" lon="6.0176">
        <ele>1357</ele>
        <time>2015-02-26T16:13:19Z</time>
      </trkpt>
      <trkpt lat="45.68037" lon="6.01788">
        <ele>1356</ele>
        <time>2015-02-26T16:13:28Z</time>
      </trkpt>
      <trkpt lat="45.68031" lon="6.01813">
        <ele>1357</ele>
        <time>2015-02-26T16:13:39Z</time>
      </trkpt>
      <trkpt lat="45.68022" lon="6.01836">
        <ele>1359</ele>
        <time>2015-02-26T16:13:49Z</time>
      </trkpt>
      <trkpt lat="45.68013" lon="6.01858">
        <ele>1359</ele>
        <time>2015-02-26T16:13:58Z</time>
      </trkpt>
      <trkpt lat="45.68016" lon="6.01885">
        <ele>1359</ele>
        <time>2015-02-26T16:14:13Z</time>
      </trkpt>
      <trkpt lat="45.6802" lon="6.01913">
        <ele>1361</ele>
        <time>2015-02-26T16:14:22Z</time>
      </trkpt>
      <trkpt lat="45.68025" lon="6.01938">
        <ele>1361</ele>
        <time>2015-02-26T16:14:32Z</time>
      </trkpt>
      <trkpt lat="45.68031" lon="6.01964">
        <ele>1360</ele>
        <time>2015-02-26T16:14:45Z</time>
      </trkpt>
      <trkpt lat="45.68028" lon="6.01991">
        <ele>1362</ele>
        <time>2015-02-26T16:15:00Z</time>
      </trkpt>
      <trkpt lat="45.68028" lon="6.02017">
        <ele>1365</ele>
        <time>2015-02-26T16:15:19Z</time>
      </trkpt>
      <trkpt lat="45.6803" lon="6.02043">
        <ele>1364</ele>
        <time>2015-02-26T16:15:38Z</time>
      </trkpt>
      <trkpt lat="45.6803" lon="6.0207">
        <ele>1366</ele>
        <time>2015-02-26T16:15:58Z</time>
      </trkpt>
      <trkpt lat="45.68037" lon="6.02093">
        <ele>1369</ele>
        <time>2015-02-26T16:16:17Z</time>
      </trkpt>
      <trkpt lat="45.6805" lon="6.02112">
        <ele>1369</ele>
        <time>2015-02-26T16:16:28Z</time>
      </trkpt>
      <trkpt lat="45.68065" lon="6.02127">
        <ele>1369</ele>
        <time>2015-02-26T16:16:47Z</time>
      </trkpt>
      <trkpt lat="45.68083" lon="6.02137">
        <ele>1370</ele>
        <time>2015-02-26T16:17:03Z</time>
      </trkpt>
      <trkpt lat="45.68098" lon="6.02152">
        <ele>1366</ele>
        <time>2015-02-26T16:17:23Z</time>
      </trkpt>
      <trkpt lat="45.68115" lon="6.02168">
        <ele>1372</ele>
        <time>2015-02-26T16:17:35Z</time>
      </trkpt>
      <trkpt lat="45.68131" lon="6.02183">
        <ele>1371</ele>
        <time>2015-02-26T16:17:43Z</time>
      </trkpt>
      <trkpt lat="45.68141" lon="6.02207">
        <ele>1372</ele>
        <time>2015-02-26T16:17:57Z</time>
      </trkpt>
      <trkpt lat="45.68156" lon="6.02223">
        <ele>1372</ele>
        <time>2015-02-26T16:18:07Z</time>
      </trkpt>
      <trkpt lat="45.6817" lon="6.0224">
        <ele>1368</ele>
        <time>2015-02-26T16:18:18Z</time>
      </trkpt>
      <trkpt lat="45.68186" lon="6.02254">
        <ele>1371</ele>
        <time>2015-02-26T16:18:30Z</time>
      </trkpt>
      <trkpt lat="45.68199" lon="6.02272">
        <ele>1370</ele>
        <time>2015-02-26T16:18:46Z</time>
      </trkpt>
      <trkpt lat="45.68211" lon="6.02292">
        <ele>1370</ele>
        <time>2015-02-26T16:18:58Z</time>
      </trkpt>
      <trkpt lat="45.68218" lon="6.02318">
        <ele>1372</ele>
        <time>2015-02-26T16:19:14Z</time>
      </trkpt>
      <trkpt lat="45.6823" lon="6.0234">
        <ele>1379</ele>
        <time>2015-02-26T16:19:24Z</time>
      </trkpt>
      <trkpt lat="45.68244" lon="6.02357">
        <ele>1380</ele>
        <time>2015-02-26T16:19:32Z</time>
      </trkpt>
      <trkpt lat="45.68257" lon="6.02377">
        <ele>1371</ele>
        <time>2015-02-26T16:19:44Z</time>
      </trkpt>
      <trkpt lat="45.6827" lon="6.02399">
        <ele>1374</ele>
        <time>2015-02-26T16:19:53Z</time>
      </trkpt>
      <trkpt lat="45.68287" lon="6.02411">
        <ele>1371</ele>
        <time>2015-02-26T16:20:03Z</time>
      </trkpt>
      <trkpt lat="45.68305" lon="6.02422">
        <ele>1377</ele>
        <time>2015-02-26T16:20:10Z</time>
      </trkpt>
      <trkpt lat="45.68323" lon="6.02431">
        <ele>1373</ele>
        <time>2015-02-26T16:20:16Z</time>
      </trkpt>
      <trkpt lat="45.6834" lon="6.02444">
        <ele>1364</ele>
        <time>2015-02-26T16:20:22Z</time>
      </trkpt>
      <trkpt lat="45.68359" lon="6.02459">
        <ele>1365</ele>
        <time>2015-02-26T16:20:28Z</time>
      </trkpt>
      <trkpt lat="45.68377" lon="6.02472">
        <ele>1364</ele>
        <time>2015-02-26T16:20:33Z</time>
      </trkpt>
      <trkpt lat="45.68399" lon="6.02482">
        <ele>1364</ele>
        <time>2015-02-26T16:20:38Z</time>
      </trkpt>
      <trkpt lat="45.68421" lon="6.02488">
        <ele>1359</ele>
        <time>2015-02-26T16:20:43Z</time>
      </trkpt>
      <trkpt lat="45.68439" lon="6.02493">
        <ele>1355</ele>
        <time>2015-02-26T16:20:48Z</time>
      </trkpt>
      <trkpt lat="45.68456" lon="6.02504">
        <ele>1359</ele>
        <time>2015-02-26T16:20:53Z</time>
      </trkpt>
      <trkpt lat="45.68475" lon="6.02509">
        <ele>1356</ele>
        <time>2015-02-26T16:20:56Z</time>
      </trkpt>
      <trkpt lat="45.68487" lon="6.02532">
        <ele>1356</ele>
        <time>2015-02-26T16:21:02Z</time>
      </trkpt>
      <trkpt lat="45.6849" lon="6.02558">
        <ele>1357</ele>
        <time>2015-02-26T16:21:07Z</time>
      </trkpt>
      <trkpt lat="45.68492" lon="6.02588">
        <ele>1355</ele>
        <time>2015-02-26T16:21:13Z</time>
      </trkpt>
      <trkpt lat="45.68491" lon="6.02616">
        <ele>1357</ele>
        <time>2015-02-26T16:21:19Z</time>
      </trkpt>
      <trkpt lat="45.68493" lon="6.02644">
        <ele>1356</ele>
        <time>2015-02-26T16:21:24Z</time>
      </trkpt>
      <trkpt lat="45.68497" lon="6.02673">
        <ele>1352</ele>
        <time>2015-02-26T16:21:29Z</time>
      </trkpt>
      <trkpt lat="45.68496" lon="6.02701">
        <ele>1353</ele>
        <time>2015-02-26T16:21:33Z</time>
      </trkpt>
      <trkpt lat="45.68494" lon="6.02728">
        <ele>1351</ele>
        <time>2015-02-26T16:21:37Z</time>
      </trkpt>
      <trkpt lat="45.68489" lon="6.02757">
        <ele>1348</ele>
        <time>2015-02-26T16:21:41Z</time>
      </trkpt>
      <trkpt lat="45.68483" lon="6.02783">
        <ele>1348</ele>
        <time>2015-02-26T16:21:45Z</time>
      </trkpt>
      <trkpt lat="45.68476" lon="6.02813">
        <ele>1347</ele>
        <time>2015-02-26T16:21:50Z</time>
      </trkpt>
      <trkpt lat="45.68468" lon="6.02838">
        <ele>1346</ele>
        <time>2015-02-26T16:21:55Z</time>
      </trkpt>
      <trkpt lat="45.68457" lon="6.02861">
        <ele>1348</ele>
        <time>2015-02-26T16:22:00Z</time>
      </trkpt>
      <trkpt lat="45.68443" lon="6.02884">
        <ele>1350</ele>
        <time>2015-02-26T16:22:04Z</time>
      </trkpt>
      <trkpt lat="45.68437" lon="6.02916">
        <ele>1352</ele>
        <time>2015-02-26T16:22:08Z</time>
      </trkpt>
      <trkpt lat="45.68437" lon="6.02944">
        <ele>1350</ele>
        <time>2015-02-26T16:22:13Z</time>
      </trkpt>
      <trkpt lat="45.68447" lon="6.02965">
        <ele>1348</ele>
        <time>2015-02-26T16:22:20Z</time>
      </trkpt>
      <trkpt lat="45.68463" lon="6.02982">
        <ele>1346</ele>
        <time>2015-02-26T16:22:26Z</time>
      </trkpt>
      <trkpt lat="45.68479" lon="6.02997">
        <ele>1343</ele>
        <time>2015-02-26T16:22:33Z</time>
      </trkpt>
      <trkpt lat="45.68485" lon="6.03022">
        <ele>1343</ele>
        <time>2015-02-26T16:22:39Z</time>
      </trkpt>
      <trkpt lat="45.68488" lon="6.03051">
        <ele>1344</ele>
        <time>2015-02-26T16:22:46Z</time>
      </trkpt>
      <trkpt lat="45.68488" lon="6.0308">
        <ele>1342</ele>
        <time>2015-02-26T16:22:52Z</time>
      </trkpt>
      <trkpt lat="45.68488" lon="6.03114">
        <ele>1342</ele>
        <time>2015-02-26T16:22:57Z</time>
      </trkpt>
      <trkpt lat="45.68489" lon="6.0314">
        <ele>1341</ele>
        <time>2015-02-26T16:23:00Z</time>
      </trkpt>
      <trkpt lat="45.6849" lon="6.03168">
        <ele>1337</ele>
        <time>2015-02-26T16:23:04Z</time>
      </trkpt>
      <trkpt lat="45.68482" lon="6.03193">
        <ele>1338</ele>
        <time>2015-02-26T16:23:08Z</time>
      </trkpt>
      <trkpt lat="45.68472" lon="6.0322">
        <ele>1337</ele>
        <time>2015-02-26T16:23:12Z</time>
      </trkpt>
      <trkpt lat="45.68462" lon="6.03246">
        <ele>1337</ele>
        <time>2015-02-26T16:23:16Z</time>
      </trkpt>
      <trkpt lat="45.68453" lon="6.03271">
        <ele>1334</ele>
        <time>2015-02-26T16:23:20Z</time>
      </trkpt>
      <trkpt lat="45.68441" lon="6.03291">
        <ele>1333</ele>
        <time>2015-02-26T16:23:24Z</time>
      </trkpt>
      <trkpt lat="45.68424" lon="6.03305">
        <ele>1332</ele>
        <time>2015-02-26T16:23:29Z</time>
      </trkpt>
      <trkpt lat="45.68405" lon="6.03308">
        <ele>1330</ele>
        <time>2015-02-26T16:23:34Z</time>
      </trkpt>
      <trkpt lat="45.68385" lon="6.03308">
        <ele>1329</ele>
        <time>2015-02-26T16:23:39Z</time>
      </trkpt>
      <trkpt lat="45.68367" lon="6.03307">
        <ele>1329</ele>
        <time>2015-02-26T16:23:44Z</time>
      </trkpt>
      <trkpt lat="45.68346" lon="6.03306">
        <ele>1328</ele>
        <time>2015-02-26T16:23:52Z</time>
      </trkpt>
      <trkpt lat="45.6833" lon="6.03294">
        <ele>1324</ele>
        <time>2015-02-26T16:23:58Z</time>
      </trkpt>
      <trkpt lat="45.68316" lon="6.03276">
        <ele>1324</ele>
        <time>2015-02-26T16:24:04Z</time>
      </trkpt>
      <trkpt lat="45.68302" lon="6.03257">
        <ele>1324</ele>
        <time>2015-02-26T16:24:09Z</time>
      </trkpt>
      <trkpt lat="45.68292" lon="6.03233">
        <ele>1326</ele>
        <time>2015-02-26T16:24:16Z</time>
      </trkpt>
      <trkpt lat="45.68282" lon="6.03208">
        <ele>1326</ele>
        <time>2015-02-26T16:24:24Z</time>
      </trkpt>
      <trkpt lat="45.6827" lon="6.03186">
        <ele>1325</ele>
        <time>2015-02-26T16:24:32Z</time>
      </trkpt>
      <trkpt lat="45.6825" lon="6.0318">
        <ele>1321</ele>
        <time>2015-02-26T16:24:39Z</time>
      </trkpt>
      <trkpt lat="45.68232" lon="6.03183">
        <ele>1320</ele>
        <time>2015-02-26T16:24:45Z</time>
      </trkpt>
      <trkpt lat="45.68213" lon="6.03185">
        <ele>1319</ele>
        <time>2015-02-26T16:24:51Z</time>
      </trkpt>
      <trkpt lat="45.68194" lon="6.03184">
        <ele>1319</ele>
        <time>2015-02-26T16:24:56Z</time>
      </trkpt>
      <trkpt lat="45.68176" lon="6.03186">
        <ele>1320</ele>
        <time>2015-02-26T16:25:00Z</time>
      </trkpt>
      <trkpt lat="45.68158" lon="6.03192">
        <ele>1322</ele>
        <time>2015-02-26T16:25:04Z</time>
      </trkpt>
      <trkpt lat="45.68142" lon="6.0321">
        <ele>1321</ele>
        <time>2015-02-26T16:25:10Z</time>
      </trkpt>
      <trkpt lat="45.68126" lon="6.03224">
        <ele>1321</ele>
        <time>2015-02-26T16:25:17Z</time>
      </trkpt>
      <trkpt lat="45.68107" lon="6.03235">
        <ele>1321</ele>
        <time>2015-02-26T16:25:23Z</time>
      </trkpt>
      <trkpt lat="45.68089" lon="6.03249">
        <ele>1320</ele>
        <time>2015-02-26T16:25:29Z</time>
      </trkpt>
      <trkpt lat="45.68074" lon="6.03265">
        <ele>1316</ele>
        <time>2015-02-26T16:25:35Z</time>
      </trkpt>
      <trkpt lat="45.68063" lon="6.03287">
        <ele>1313</ele>
        <time>2015-02-26T16:25:41Z</time>
      </trkpt>
      <trkpt lat="45.68055" lon="6.03314">
        <ele>1310</ele>
        <time>2015-02-26T16:25:48Z</time>
      </trkpt>
      <trkpt lat="45.68042" lon="6.03331">
        <ele>1310</ele>
        <time>2015-02-26T16:25:56Z</time>
      </trkpt>
      <trkpt lat="45.68021" lon="6.03333">
        <ele>1310</ele>
        <time>2015-02-26T16:26:04Z</time>
      </trkpt>
      <trkpt lat="45.68004" lon="6.03323">
        <ele>1310</ele>
        <time>2015-02-26T16:26:12Z</time>
      </trkpt>
      <trkpt lat="45.67985" lon="6.03312">
        <ele>1314</ele>
        <time>2015-02-26T16:26:20Z</time>
      </trkpt>
      <trkpt lat="45.67965" lon="6.03306">
        <ele>1316</ele>
        <time>2015-02-26T16:26:26Z</time>
      </trkpt>
      <trkpt lat="45.67948" lon="6.033">
        <ele>1316</ele>
        <time>2015-02-26T16:26:57Z</time>
      </trkpt>
      <trkpt lat="45.67929" lon="6.03298">
        <ele>1316</ele>
        <time>2015-02-26T16:27:09Z</time>
      </trkpt>
      <trkpt lat="45.6791" lon="6.03296">
        <ele>1315</ele>
        <time>2015-02-26T16:27:18Z</time>
      </trkpt>
      <trkpt lat="45.67891" lon="6.03293">
        <ele>1315</ele>
        <time>2015-02-26T16:27:30Z</time>
      </trkpt>
      <trkpt lat="45.67873" lon="6.0329">
        <ele>1315</ele>
        <time>2015-02-26T16:27:39Z</time>
      </trkpt>
      <trkpt lat="45.67853" lon="6.03287">
        <ele>1314</ele>
        <time>2015-02-26T16:27:48Z</time>
      </trkpt>
      <trkpt lat="45.67836" lon="6.0328">
        <ele>1314</ele>
        <time>2015-02-26T16:28:00Z</time>
      </trkpt>
      <trkpt lat="45.67817" lon="6.03276">
        <ele>1310</ele>
        <time>2015-02-26T16:28:12Z</time>
      </trkpt>
      <trkpt lat="45.67836" lon="6.03284">
        <ele>1314</ele>
        <time>2015-02-26T16:30:09Z</time>
      </trkpt>
      <trkpt lat="45.67855" lon="6.0329">
        <ele>1314</ele>
        <time>2015-02-26T16:30:20Z</time>
      </trkpt>
      <trkpt lat="45.67873" lon="6.03299">
        <ele>1314</ele>
        <time>2015-02-26T16:30:31Z</time>
      </trkpt>
      <trkpt lat="45.67892" lon="6.03306">
        <ele>1315</ele>
        <time>2015-02-26T16:30:40Z</time>
      </trkpt>
      <trkpt lat="45.67911" lon="6.03309">
        <ele>1315</ele>
        <time>2015-02-26T16:30:48Z</time>
      </trkpt>
      <trkpt lat="45.6793" lon="6.03309">
        <ele>1316</ele>
        <time>2015-02-26T16:30:57Z</time>
      </trkpt>
      <trkpt lat="45.67913" lon="6.03295">
        <ele>1316</ele>
        <time>2015-02-26T16:31:43Z</time>
      </trkpt>
      <trkpt lat="45.67893" lon="6.03286">
        <ele>1316</ele>
        <time>2015-02-26T16:31:52Z</time>
      </trkpt>
      <trkpt lat="45.67874" lon="6.03283">
        <ele>1315</ele>
        <time>2015-02-26T16:31:57Z</time>
      </trkpt>
      <trkpt lat="45.67856" lon="6.03282">
        <ele>1314</ele>
        <time>2015-02-26T16:32:07Z</time>
      </trkpt>
      <trkpt lat="45.67838" lon="6.03276">
        <ele>1314</ele>
        <time>2015-02-26T16:32:22Z</time>
      </trkpt>
      <trkpt lat="45.67818" lon="6.03268">
        <ele>1310</ele>
        <time>2015-02-26T16:32:35Z</time>
      </trkpt>
      <trkpt lat="45.67801" lon="6.03258">
        <ele>1309</ele>
        <time>2015-02-26T16:32:43Z</time>
      </trkpt>
      <trkpt lat="45.67784" lon="6.03249">
        <ele>1312</ele>
        <time>2015-02-26T16:33:15Z</time>
      </trkpt>
      <trkpt lat="45.67767" lon="6.03238">
        <ele>1310</ele>
        <time>2015-02-26T16:33:50Z</time>
      </trkpt>
      <trkpt lat="45.67761" lon="6.03213">
        <ele>1312</ele>
        <time>2015-02-26T16:34:17Z</time>
      </trkpt>
      <trkpt lat="45.67742" lon="6.03207">
        <ele>1307</ele>
        <time>2015-02-26T16:34:31Z</time>
      </trkpt>
      <trkpt lat="45.67724" lon="6.03211">
        <ele>1306</ele>
        <time>2015-02-26T16:34:42Z</time>
      </trkpt>
      <trkpt lat="45.67711" lon="6.03193">
        <ele>1306</ele>
        <time>2015-02-26T16:34:54Z</time>
      </trkpt>
      <trkpt lat="45.67697" lon="6.03176">
        <ele>1305</ele>
        <time>2015-02-26T16:35:07Z</time>
      </trkpt>
      <trkpt lat="45.67685" lon="6.03154">
        <ele>1307</ele>
        <time>2015-02-26T16:35:23Z</time>
      </trkpt>
    </trkseg>
  </trk>
</gpx>